<?xml version="1.0" encoding="UTF-8" standalone="no" ?>
<gpx xmlns="http://www.topografix.com/GPX/1/1" xmlns:xsi="http://www.w3.org/2001/XMLSchema-instance" xsi:schemaLocation="http://www.topografix.com/GPX/1/1 http://www.topografix.com/GPX/1/1/gpx.xsd" version="1.1" creator="VisuGPX - https://www.visugpx.com">
  <metadata>
    <name>Bourgogne</name>
    <desc><![CDATA[Étape 2 Beaune Dijon]]></desc>
  </metadata>
  <trk>
    <name><![CDATA[TracA- actuel- 21 JUIN 2015 08-39]]></name>
    <trkseg>
      <trkpt lat="47.01223" lon="4.84076">
        <ele>209</ele>
        <time>2015-06-21T07:39:10Z</time>
      </trkpt>
      <trkpt lat="47.01223" lon="4.84076">
        <ele>180</ele>
        <time>2015-06-21T07:39:11Z</time>
      </trkpt>
      <trkpt lat="47.01228" lon="4.84046">
        <ele>180</ele>
        <time>2015-06-21T07:40:35Z</time>
      </trkpt>
      <trkpt lat="47.01228" lon="4.84047">
        <ele>183</ele>
        <time>2015-06-21T07:41:18Z</time>
      </trkpt>
      <trkpt lat="47.01228" lon="4.84047">
        <ele>187</ele>
        <time>2015-06-21T07:41:20Z</time>
      </trkpt>
      <trkpt lat="47.01228" lon="4.84047">
        <ele>190</ele>
        <time>2015-06-21T07:41:22Z</time>
      </trkpt>
      <trkpt lat="47.01228" lon="4.84047">
        <ele>193</ele>
        <time>2015-06-21T07:41:24Z</time>
      </trkpt>
      <trkpt lat="47.01228" lon="4.84047">
        <ele>197</ele>
        <time>2015-06-21T07:41:27Z</time>
      </trkpt>
      <trkpt lat="47.01228" lon="4.84047">
        <ele>201</ele>
        <time>2015-06-21T07:41:30Z</time>
      </trkpt>
      <trkpt lat="47.01228" lon="4.84047">
        <ele>205</ele>
        <time>2015-06-21T07:41:34Z</time>
      </trkpt>
      <trkpt lat="47.01227" lon="4.84046">
        <ele>208</ele>
        <time>2015-06-21T07:41:38Z</time>
      </trkpt>
      <trkpt lat="47.01227" lon="4.84046">
        <ele>212</ele>
        <time>2015-06-21T07:41:42Z</time>
      </trkpt>
      <trkpt lat="47.0123" lon="4.84044">
        <ele>215</ele>
        <time>2015-06-21T07:41:47Z</time>
      </trkpt>
      <trkpt lat="47.01231" lon="4.84044">
        <ele>219</ele>
        <time>2015-06-21T07:41:54Z</time>
      </trkpt>
      <trkpt lat="47.01231" lon="4.84044">
        <ele>222</ele>
        <time>2015-06-21T07:42:02Z</time>
      </trkpt>
      <trkpt lat="47.01231" lon="4.84044">
        <ele>225</ele>
        <time>2015-06-21T07:42:14Z</time>
      </trkpt>
      <trkpt lat="47.01231" lon="4.84044">
        <ele>228</ele>
        <time>2015-06-21T07:42:33Z</time>
      </trkpt>
      <trkpt lat="47.0123" lon="4.84046">
        <ele>231</ele>
        <time>2015-06-21T07:46:17Z</time>
      </trkpt>
      <trkpt lat="47.0123" lon="4.84046">
        <ele>230</ele>
        <time>2015-06-21T07:48:02Z</time>
      </trkpt>
      <trkpt lat="47.01226" lon="4.84065">
        <ele>230</ele>
        <time>2015-06-21T07:48:13Z</time>
      </trkpt>
      <trkpt lat="47.01219" lon="4.84137">
        <ele>230</ele>
        <time>2015-06-21T07:48:42Z</time>
      </trkpt>
      <trkpt lat="47.012" lon="4.84215">
        <ele>230</ele>
        <time>2015-06-21T07:49:12Z</time>
      </trkpt>
      <trkpt lat="47.01241" lon="4.8424">
        <ele>229</ele>
        <time>2015-06-21T07:49:31Z</time>
      </trkpt>
      <trkpt lat="47.01271" lon="4.84269">
        <ele>229</ele>
        <time>2015-06-21T07:49:45Z</time>
      </trkpt>
      <trkpt lat="47.01299" lon="4.84294">
        <ele>229</ele>
        <time>2015-06-21T07:49:57Z</time>
      </trkpt>
      <trkpt lat="47.01315" lon="4.84248">
        <ele>230</ele>
        <time>2015-06-21T07:50:07Z</time>
      </trkpt>
      <trkpt lat="47.01349" lon="4.84188">
        <ele>229</ele>
        <time>2015-06-21T07:50:23Z</time>
      </trkpt>
      <trkpt lat="47.01427" lon="4.84039">
        <ele>230</ele>
        <time>2015-06-21T07:50:59Z</time>
      </trkpt>
      <trkpt lat="47.01445" lon="4.84027">
        <ele>230</ele>
        <time>2015-06-21T07:51:08Z</time>
      </trkpt>
      <trkpt lat="47.01473" lon="4.83968">
        <ele>229</ele>
        <time>2015-06-21T07:51:22Z</time>
      </trkpt>
      <trkpt lat="47.01542" lon="4.83832">
        <ele>229</ele>
        <time>2015-06-21T07:51:54Z</time>
      </trkpt>
      <trkpt lat="47.01554" lon="4.83815">
        <ele>230</ele>
        <time>2015-06-21T07:52:01Z</time>
      </trkpt>
      <trkpt lat="47.01622" lon="4.83731">
        <ele>229</ele>
        <time>2015-06-21T07:52:26Z</time>
      </trkpt>
      <trkpt lat="47.01642" lon="4.8372">
        <ele>229</ele>
        <time>2015-06-21T07:52:36Z</time>
      </trkpt>
      <trkpt lat="47.01657" lon="4.83693">
        <ele>229</ele>
        <time>2015-06-21T07:52:44Z</time>
      </trkpt>
      <trkpt lat="47.01706" lon="4.8365">
        <ele>229</ele>
        <time>2015-06-21T07:52:59Z</time>
      </trkpt>
      <trkpt lat="47.01798" lon="4.83598">
        <ele>230</ele>
        <time>2015-06-21T07:53:28Z</time>
      </trkpt>
      <trkpt lat="47.01802" lon="4.83597">
        <ele>230</ele>
        <time>2015-06-21T07:53:29Z</time>
      </trkpt>
      <trkpt lat="47.01938" lon="4.83565">
        <ele>231</ele>
        <time>2015-06-21T07:54:04Z</time>
      </trkpt>
      <trkpt lat="47.02016" lon="4.83561">
        <ele>231</ele>
        <time>2015-06-21T07:54:26Z</time>
      </trkpt>
      <trkpt lat="47.02039" lon="4.83573">
        <ele>231</ele>
        <time>2015-06-21T07:54:38Z</time>
      </trkpt>
      <trkpt lat="47.02041" lon="4.83577">
        <ele>231</ele>
        <time>2015-06-21T07:54:52Z</time>
      </trkpt>
      <trkpt lat="47.02041" lon="4.83588">
        <ele>231</ele>
        <time>2015-06-21T07:55:00Z</time>
      </trkpt>
      <trkpt lat="47.02057" lon="4.83626">
        <ele>231</ele>
        <time>2015-06-21T07:55:13Z</time>
      </trkpt>
      <trkpt lat="47.02079" lon="4.83708">
        <ele>231</ele>
        <time>2015-06-21T07:55:32Z</time>
      </trkpt>
      <trkpt lat="47.02085" lon="4.83755">
        <ele>231</ele>
        <time>2015-06-21T07:55:40Z</time>
      </trkpt>
      <trkpt lat="47.02113" lon="4.83749">
        <ele>231</ele>
        <time>2015-06-21T07:55:51Z</time>
      </trkpt>
      <trkpt lat="47.02171" lon="4.83722">
        <ele>230</ele>
        <time>2015-06-21T07:56:10Z</time>
      </trkpt>
      <trkpt lat="47.02187" lon="4.83716">
        <ele>230</ele>
        <time>2015-06-21T07:56:23Z</time>
      </trkpt>
      <trkpt lat="47.02189" lon="4.83731">
        <ele>230</ele>
        <time>2015-06-21T07:56:33Z</time>
      </trkpt>
      <trkpt lat="47.02191" lon="4.83745">
        <ele>229</ele>
        <time>2015-06-21T07:56:38Z</time>
      </trkpt>
      <trkpt lat="47.02206" lon="4.83803">
        <ele>230</ele>
        <time>2015-06-21T07:56:58Z</time>
      </trkpt>
      <trkpt lat="47.02205" lon="4.83809">
        <ele>230</ele>
        <time>2015-06-21T07:57:10Z</time>
      </trkpt>
      <trkpt lat="47.02218" lon="4.83815">
        <ele>230</ele>
        <time>2015-06-21T07:58:12Z</time>
      </trkpt>
      <trkpt lat="47.02217" lon="4.83816">
        <ele>229</ele>
        <time>2015-06-21T07:59:52Z</time>
      </trkpt>
      <trkpt lat="47.02216" lon="4.83818">
        <ele>230</ele>
        <time>2015-06-21T08:00:27Z</time>
      </trkpt>
      <trkpt lat="47.02219" lon="4.83821">
        <ele>229</ele>
        <time>2015-06-21T08:02:46Z</time>
      </trkpt>
      <trkpt lat="47.02226" lon="4.83816">
        <ele>229</ele>
        <time>2015-06-21T08:03:39Z</time>
      </trkpt>
      <trkpt lat="47.02222" lon="4.83834">
        <ele>231</ele>
        <time>2015-06-21T08:10:57Z</time>
      </trkpt>
      <trkpt lat="47.02236" lon="4.83846">
        <ele>231</ele>
        <time>2015-06-21T08:11:40Z</time>
      </trkpt>
      <trkpt lat="47.02223" lon="4.83837">
        <ele>232</ele>
        <time>2015-06-21T08:12:46Z</time>
      </trkpt>
      <trkpt lat="47.02229" lon="4.8383">
        <ele>232</ele>
        <time>2015-06-21T08:14:03Z</time>
      </trkpt>
      <trkpt lat="47.02225" lon="4.83817">
        <ele>232</ele>
        <time>2015-06-21T08:16:25Z</time>
      </trkpt>
      <trkpt lat="47.02253" lon="4.83795">
        <ele>232</ele>
        <time>2015-06-21T08:19:08Z</time>
      </trkpt>
      <trkpt lat="47.02243" lon="4.83791">
        <ele>232</ele>
        <time>2015-06-21T08:19:43Z</time>
      </trkpt>
      <trkpt lat="47.02208" lon="4.83812">
        <ele>232</ele>
        <time>2015-06-21T08:20:06Z</time>
      </trkpt>
      <trkpt lat="47.02204" lon="4.83813">
        <ele>232</ele>
        <time>2015-06-21T08:20:42Z</time>
      </trkpt>
      <trkpt lat="47.02224" lon="4.83821">
        <ele>232</ele>
        <time>2015-06-21T08:21:09Z</time>
      </trkpt>
      <trkpt lat="47.02225" lon="4.83816">
        <ele>232</ele>
        <time>2015-06-21T08:21:52Z</time>
      </trkpt>
      <trkpt lat="47.02211" lon="4.83819">
        <ele>233</ele>
        <time>2015-06-21T08:22:27Z</time>
      </trkpt>
      <trkpt lat="47.0223" lon="4.83811">
        <ele>232</ele>
        <time>2015-06-21T08:23:21Z</time>
      </trkpt>
      <trkpt lat="47.02239" lon="4.83801">
        <ele>232</ele>
        <time>2015-06-21T08:24:46Z</time>
      </trkpt>
      <trkpt lat="47.02236" lon="4.83814">
        <ele>231</ele>
        <time>2015-06-21T08:27:26Z</time>
      </trkpt>
      <trkpt lat="47.02218" lon="4.83801">
        <ele>230</ele>
        <time>2015-06-21T08:28:48Z</time>
      </trkpt>
      <trkpt lat="47.02224" lon="4.83803">
        <ele>230</ele>
        <time>2015-06-21T08:29:39Z</time>
      </trkpt>
      <trkpt lat="47.02257" lon="4.8381">
        <ele>230</ele>
        <time>2015-06-21T08:34:48Z</time>
      </trkpt>
      <trkpt lat="47.02242" lon="4.83815">
        <ele>231</ele>
        <time>2015-06-21T08:36:55Z</time>
      </trkpt>
      <trkpt lat="47.02225" lon="4.83801">
        <ele>232</ele>
        <time>2015-06-21T08:39:27Z</time>
      </trkpt>
      <trkpt lat="47.02227" lon="4.83801">
        <ele>232</ele>
        <time>2015-06-21T08:41:21Z</time>
      </trkpt>
      <trkpt lat="47.02232" lon="4.83804">
        <ele>232</ele>
        <time>2015-06-21T08:45:22Z</time>
      </trkpt>
      <trkpt lat="47.02221" lon="4.83825">
        <ele>232</ele>
        <time>2015-06-21T08:46:13Z</time>
      </trkpt>
      <trkpt lat="47.02225" lon="4.83812">
        <ele>231</ele>
        <time>2015-06-21T08:47:56Z</time>
      </trkpt>
      <trkpt lat="47.02239" lon="4.83821">
        <ele>230</ele>
        <time>2015-06-21T08:49:50Z</time>
      </trkpt>
      <trkpt lat="47.02229" lon="4.83801">
        <ele>232</ele>
        <time>2015-06-21T08:55:35Z</time>
      </trkpt>
      <trkpt lat="47.0223" lon="4.83807">
        <ele>229</ele>
        <time>2015-06-21T08:57:06Z</time>
      </trkpt>
      <trkpt lat="47.02238" lon="4.83815">
        <ele>227</ele>
        <time>2015-06-21T08:59:34Z</time>
      </trkpt>
      <trkpt lat="47.02245" lon="4.83829">
        <ele>226</ele>
        <time>2015-06-21T09:00:20Z</time>
      </trkpt>
      <trkpt lat="47.02252" lon="4.83825">
        <ele>227</ele>
        <time>2015-06-21T09:01:22Z</time>
      </trkpt>
      <trkpt lat="47.02243" lon="4.83819">
        <ele>227</ele>
        <time>2015-06-21T09:01:58Z</time>
      </trkpt>
      <trkpt lat="47.02224" lon="4.83812">
        <ele>226</ele>
        <time>2015-06-21T09:07:35Z</time>
      </trkpt>
      <trkpt lat="47.02212" lon="4.83807">
        <ele>226</ele>
        <time>2015-06-21T09:09:53Z</time>
      </trkpt>
      <trkpt lat="47.02231" lon="4.83825">
        <ele>226</ele>
        <time>2015-06-21T09:10:34Z</time>
      </trkpt>
      <trkpt lat="47.02219" lon="4.83825">
        <ele>226</ele>
        <time>2015-06-21T09:11:12Z</time>
      </trkpt>
      <trkpt lat="47.0223" lon="4.83818">
        <ele>227</ele>
        <time>2015-06-21T09:16:20Z</time>
      </trkpt>
      <trkpt lat="47.02223" lon="4.83824">
        <ele>226</ele>
        <time>2015-06-21T09:18:58Z</time>
      </trkpt>
      <trkpt lat="47.02224" lon="4.83825">
        <ele>227</ele>
        <time>2015-06-21T09:20:44Z</time>
      </trkpt>
      <trkpt lat="47.0223" lon="4.83845">
        <ele>226</ele>
        <time>2015-06-21T09:20:53Z</time>
      </trkpt>
      <trkpt lat="47.02231" lon="4.83847">
        <ele>227</ele>
        <time>2015-06-21T09:20:54Z</time>
      </trkpt>
      <trkpt lat="47.02256" lon="4.83882">
        <ele>226</ele>
        <time>2015-06-21T09:21:32Z</time>
      </trkpt>
      <trkpt lat="47.0226" lon="4.8388">
        <ele>226</ele>
        <time>2015-06-21T09:22:29Z</time>
      </trkpt>
      <trkpt lat="47.0227" lon="4.83838">
        <ele>227</ele>
        <time>2015-06-21T09:22:49Z</time>
      </trkpt>
      <trkpt lat="47.02264" lon="4.83795">
        <ele>225</ele>
        <time>2015-06-21T09:23:04Z</time>
      </trkpt>
      <trkpt lat="47.02278" lon="4.83772">
        <ele>225</ele>
        <time>2015-06-21T09:23:14Z</time>
      </trkpt>
      <trkpt lat="47.0228" lon="4.83721">
        <ele>225</ele>
        <time>2015-06-21T09:23:28Z</time>
      </trkpt>
      <trkpt lat="47.02288" lon="4.83696">
        <ele>223</ele>
        <time>2015-06-21T09:23:38Z</time>
      </trkpt>
      <trkpt lat="47.02299" lon="4.83684">
        <ele>224</ele>
        <time>2015-06-21T09:23:43Z</time>
      </trkpt>
      <trkpt lat="47.02313" lon="4.83642">
        <ele>224</ele>
        <time>2015-06-21T09:23:58Z</time>
      </trkpt>
      <trkpt lat="47.02316" lon="4.83637">
        <ele>224</ele>
        <time>2015-06-21T09:24:16Z</time>
      </trkpt>
      <trkpt lat="47.02328" lon="4.83617">
        <ele>224</ele>
        <time>2015-06-21T09:24:44Z</time>
      </trkpt>
      <trkpt lat="47.02364" lon="4.83578">
        <ele>225</ele>
        <time>2015-06-21T09:25:02Z</time>
      </trkpt>
      <trkpt lat="47.02368" lon="4.83561">
        <ele>225</ele>
        <time>2015-06-21T09:25:11Z</time>
      </trkpt>
      <trkpt lat="47.02368" lon="4.8356">
        <ele>225</ele>
        <time>2015-06-21T09:25:28Z</time>
      </trkpt>
      <trkpt lat="47.02397" lon="4.83534">
        <ele>224</ele>
        <time>2015-06-21T09:25:53Z</time>
      </trkpt>
      <trkpt lat="47.02436" lon="4.83499">
        <ele>225</ele>
        <time>2015-06-21T09:26:09Z</time>
      </trkpt>
      <trkpt lat="47.02499" lon="4.83444">
        <ele>226</ele>
        <time>2015-06-21T09:26:40Z</time>
      </trkpt>
      <trkpt lat="47.02499" lon="4.83444">
        <ele>226</ele>
        <time>2015-06-21T09:28:12Z</time>
      </trkpt>
      <trkpt lat="47.02512" lon="4.83482">
        <ele>226</ele>
        <time>2015-06-21T09:28:25Z</time>
      </trkpt>
      <trkpt lat="47.02529" lon="4.83516">
        <ele>226</ele>
        <time>2015-06-21T09:28:37Z</time>
      </trkpt>
      <trkpt lat="47.0258" lon="4.83559">
        <ele>227</ele>
        <time>2015-06-21T09:28:57Z</time>
      </trkpt>
      <trkpt lat="47.02595" lon="4.83564">
        <ele>227</ele>
        <time>2015-06-21T09:29:03Z</time>
      </trkpt>
      <trkpt lat="47.02606" lon="4.83565">
        <ele>228</ele>
        <time>2015-06-21T09:29:08Z</time>
      </trkpt>
      <trkpt lat="47.02616" lon="4.8357">
        <ele>228</ele>
        <time>2015-06-21T09:29:11Z</time>
      </trkpt>
      <trkpt lat="47.02624" lon="4.8358">
        <ele>228</ele>
        <time>2015-06-21T09:29:14Z</time>
      </trkpt>
      <trkpt lat="47.02629" lon="4.83587">
        <ele>229</ele>
        <time>2015-06-21T09:29:16Z</time>
      </trkpt>
      <trkpt lat="47.02681" lon="4.83636">
        <ele>228</ele>
        <time>2015-06-21T09:29:38Z</time>
      </trkpt>
      <trkpt lat="47.02739" lon="4.83683">
        <ele>228</ele>
        <time>2015-06-21T09:29:58Z</time>
      </trkpt>
      <trkpt lat="47.02769" lon="4.8374">
        <ele>228</ele>
        <time>2015-06-21T09:30:19Z</time>
      </trkpt>
      <trkpt lat="47.02771" lon="4.83747">
        <ele>229</ele>
        <time>2015-06-21T09:30:34Z</time>
      </trkpt>
      <trkpt lat="47.0277" lon="4.83749">
        <ele>228</ele>
        <time>2015-06-21T09:30:53Z</time>
      </trkpt>
      <trkpt lat="47.02767" lon="4.83752">
        <ele>228</ele>
        <time>2015-06-21T09:30:56Z</time>
      </trkpt>
      <trkpt lat="47.02765" lon="4.83757">
        <ele>228</ele>
        <time>2015-06-21T09:30:58Z</time>
      </trkpt>
      <trkpt lat="47.02748" lon="4.83862">
        <ele>228</ele>
        <time>2015-06-21T09:31:25Z</time>
      </trkpt>
      <trkpt lat="47.02735" lon="4.83968">
        <ele>227</ele>
        <time>2015-06-21T09:31:55Z</time>
      </trkpt>
      <trkpt lat="47.02741" lon="4.83972">
        <ele>227</ele>
        <time>2015-06-21T09:31:59Z</time>
      </trkpt>
      <trkpt lat="47.02742" lon="4.8397">
        <ele>227</ele>
        <time>2015-06-21T09:32:18Z</time>
      </trkpt>
      <trkpt lat="47.0276" lon="4.83972">
        <ele>227</ele>
        <time>2015-06-21T09:32:32Z</time>
      </trkpt>
      <trkpt lat="47.02803" lon="4.8398">
        <ele>227</ele>
        <time>2015-06-21T09:32:42Z</time>
      </trkpt>
      <trkpt lat="47.02811" lon="4.83982">
        <ele>227</ele>
        <time>2015-06-21T09:32:44Z</time>
      </trkpt>
      <trkpt lat="47.02943" lon="4.84069">
        <ele>228</ele>
        <time>2015-06-21T09:33:16Z</time>
      </trkpt>
      <trkpt lat="47.03009" lon="4.84137">
        <ele>227</ele>
        <time>2015-06-21T09:33:34Z</time>
      </trkpt>
      <trkpt lat="47.03103" lon="4.84207">
        <ele>228</ele>
        <time>2015-06-21T09:34:04Z</time>
      </trkpt>
      <trkpt lat="47.03122" lon="4.84226">
        <ele>228</ele>
        <time>2015-06-21T09:34:33Z</time>
      </trkpt>
      <trkpt lat="47.03182" lon="4.8427">
        <ele>228</ele>
        <time>2015-06-21T09:34:50Z</time>
      </trkpt>
      <trkpt lat="47.03359" lon="4.84414">
        <ele>230</ele>
        <time>2015-06-21T09:35:37Z</time>
      </trkpt>
      <trkpt lat="47.03437" lon="4.84479">
        <ele>230</ele>
        <time>2015-06-21T09:35:58Z</time>
      </trkpt>
      <trkpt lat="47.03458" lon="4.84496">
        <ele>230</ele>
        <time>2015-06-21T09:36:09Z</time>
      </trkpt>
      <trkpt lat="47.03478" lon="4.84513">
        <ele>231</ele>
        <time>2015-06-21T09:36:39Z</time>
      </trkpt>
      <trkpt lat="47.03556" lon="4.84579">
        <ele>231</ele>
        <time>2015-06-21T09:37:00Z</time>
      </trkpt>
      <trkpt lat="47.03743" lon="4.84733">
        <ele>233</ele>
        <time>2015-06-21T09:37:46Z</time>
      </trkpt>
      <trkpt lat="47.0384" lon="4.84785">
        <ele>234</ele>
        <time>2015-06-21T09:38:08Z</time>
      </trkpt>
      <trkpt lat="47.03866" lon="4.84794">
        <ele>234</ele>
        <time>2015-06-21T09:38:14Z</time>
      </trkpt>
      <trkpt lat="47.03907" lon="4.84828">
        <ele>236</ele>
        <time>2015-06-21T09:38:28Z</time>
      </trkpt>
      <trkpt lat="47.0391" lon="4.8484">
        <ele>236</ele>
        <time>2015-06-21T09:38:31Z</time>
      </trkpt>
      <trkpt lat="47.03914" lon="4.84843">
        <ele>237</ele>
        <time>2015-06-21T09:38:33Z</time>
      </trkpt>
      <trkpt lat="47.03932" lon="4.84842">
        <ele>237</ele>
        <time>2015-06-21T09:38:39Z</time>
      </trkpt>
      <trkpt lat="47.03972" lon="4.84821">
        <ele>238</ele>
        <time>2015-06-21T09:38:50Z</time>
      </trkpt>
      <trkpt lat="47.04043" lon="4.84837">
        <ele>241</ele>
        <time>2015-06-21T09:39:10Z</time>
      </trkpt>
      <trkpt lat="47.04245" lon="4.84887">
        <ele>240</ele>
        <time>2015-06-21T09:39:59Z</time>
      </trkpt>
      <trkpt lat="47.04302" lon="4.84911">
        <ele>239</ele>
        <time>2015-06-21T09:40:10Z</time>
      </trkpt>
      <trkpt lat="47.04308" lon="4.84923">
        <ele>240</ele>
        <time>2015-06-21T09:40:12Z</time>
      </trkpt>
      <trkpt lat="47.04311" lon="4.8493">
        <ele>239</ele>
        <time>2015-06-21T09:40:13Z</time>
      </trkpt>
      <trkpt lat="47.04331" lon="4.84944">
        <ele>238</ele>
        <time>2015-06-21T09:40:17Z</time>
      </trkpt>
      <trkpt lat="47.04345" lon="4.84935">
        <ele>238</ele>
        <time>2015-06-21T09:40:20Z</time>
      </trkpt>
      <trkpt lat="47.04353" lon="4.84909">
        <ele>238</ele>
        <time>2015-06-21T09:40:25Z</time>
      </trkpt>
      <trkpt lat="47.04339" lon="4.84889">
        <ele>239</ele>
        <time>2015-06-21T09:40:29Z</time>
      </trkpt>
      <trkpt lat="47.0432" lon="4.8489">
        <ele>240</ele>
        <time>2015-06-21T09:40:33Z</time>
      </trkpt>
      <trkpt lat="47.04316" lon="4.84898">
        <ele>239</ele>
        <time>2015-06-21T09:40:49Z</time>
      </trkpt>
      <trkpt lat="47.04313" lon="4.84907">
        <ele>239</ele>
        <time>2015-06-21T09:43:03Z</time>
      </trkpt>
      <trkpt lat="47.04314" lon="4.84918">
        <ele>240</ele>
        <time>2015-06-21T09:43:07Z</time>
      </trkpt>
      <trkpt lat="47.04329" lon="4.84942">
        <ele>238</ele>
        <time>2015-06-21T09:43:15Z</time>
      </trkpt>
      <trkpt lat="47.04352" lon="4.84941">
        <ele>238</ele>
        <time>2015-06-21T09:43:20Z</time>
      </trkpt>
      <trkpt lat="47.04371" lon="4.84952">
        <ele>237</ele>
        <time>2015-06-21T09:43:24Z</time>
      </trkpt>
      <trkpt lat="47.04594" lon="4.85166">
        <ele>236</ele>
        <time>2015-06-21T09:44:15Z</time>
      </trkpt>
      <trkpt lat="47.0483" lon="4.8536">
        <ele>239</ele>
        <time>2015-06-21T09:45:08Z</time>
      </trkpt>
      <trkpt lat="47.04953" lon="4.85458">
        <ele>240</ele>
        <time>2015-06-21T09:45:36Z</time>
      </trkpt>
      <trkpt lat="47.05205" lon="4.85664">
        <ele>238</ele>
        <time>2015-06-21T09:46:31Z</time>
      </trkpt>
      <trkpt lat="47.05456" lon="4.85842">
        <ele>236</ele>
        <time>2015-06-21T09:47:26Z</time>
      </trkpt>
      <trkpt lat="47.05564" lon="4.85911">
        <ele>234</ele>
        <time>2015-06-21T09:47:46Z</time>
      </trkpt>
      <trkpt lat="47.05693" lon="4.86007">
        <ele>231</ele>
        <time>2015-06-21T09:48:07Z</time>
      </trkpt>
      <trkpt lat="47.05777" lon="4.86072">
        <ele>231</ele>
        <time>2015-06-21T09:48:24Z</time>
      </trkpt>
      <trkpt lat="47.0586" lon="4.86166">
        <ele>232</ele>
        <time>2015-06-21T09:48:45Z</time>
      </trkpt>
      <trkpt lat="47.05875" lon="4.86174">
        <ele>232</ele>
        <time>2015-06-21T09:48:50Z</time>
      </trkpt>
      <trkpt lat="47.05905" lon="4.86164">
        <ele>232</ele>
        <time>2015-06-21T09:48:57Z</time>
      </trkpt>
      <trkpt lat="47.06002" lon="4.86136">
        <ele>233</ele>
        <time>2015-06-21T09:49:18Z</time>
      </trkpt>
      <trkpt lat="47.06166" lon="4.86091">
        <ele>236</ele>
        <time>2015-06-21T09:49:55Z</time>
      </trkpt>
      <trkpt lat="47.06323" lon="4.86048">
        <ele>239</ele>
        <time>2015-06-21T09:50:32Z</time>
      </trkpt>
      <trkpt lat="47.06327" lon="4.86046">
        <ele>239</ele>
        <time>2015-06-21T09:50:33Z</time>
      </trkpt>
      <trkpt lat="47.06373" lon="4.86035">
        <ele>240</ele>
        <time>2015-06-21T09:50:45Z</time>
      </trkpt>
      <trkpt lat="47.06399" lon="4.86004">
        <ele>240</ele>
        <time>2015-06-21T09:50:56Z</time>
      </trkpt>
      <trkpt lat="47.06446" lon="4.85917">
        <ele>243</ele>
        <time>2015-06-21T09:51:16Z</time>
      </trkpt>
      <trkpt lat="47.06483" lon="4.85918">
        <ele>246</ele>
        <time>2015-06-21T09:51:27Z</time>
      </trkpt>
      <trkpt lat="47.0649" lon="4.85919">
        <ele>247</ele>
        <time>2015-06-21T09:51:29Z</time>
      </trkpt>
      <trkpt lat="47.06531" lon="4.85932">
        <ele>250</ele>
        <time>2015-06-21T09:51:42Z</time>
      </trkpt>
      <trkpt lat="47.06579" lon="4.85948">
        <ele>253</ele>
        <time>2015-06-21T09:51:57Z</time>
      </trkpt>
      <trkpt lat="47.0659" lon="4.85956">
        <ele>253</ele>
        <time>2015-06-21T09:52:08Z</time>
      </trkpt>
      <trkpt lat="47.06594" lon="4.85958">
        <ele>254</ele>
        <time>2015-06-21T09:53:50Z</time>
      </trkpt>
      <trkpt lat="47.06602" lon="4.85964">
        <ele>254</ele>
        <time>2015-06-21T09:53:54Z</time>
      </trkpt>
      <trkpt lat="47.06606" lon="4.85969">
        <ele>254</ele>
        <time>2015-06-21T09:53:57Z</time>
      </trkpt>
      <trkpt lat="47.0661" lon="4.85987">
        <ele>254</ele>
        <time>2015-06-21T09:54:02Z</time>
      </trkpt>
      <trkpt lat="47.06644" lon="4.86021">
        <ele>256</ele>
        <time>2015-06-21T09:54:17Z</time>
      </trkpt>
      <trkpt lat="47.06648" lon="4.86043">
        <ele>255</ele>
        <time>2015-06-21T09:54:23Z</time>
      </trkpt>
      <trkpt lat="47.06663" lon="4.86071">
        <ele>256</ele>
        <time>2015-06-21T09:54:33Z</time>
      </trkpt>
      <trkpt lat="47.06685" lon="4.86102">
        <ele>258</ele>
        <time>2015-06-21T09:54:58Z</time>
      </trkpt>
      <trkpt lat="47.06686" lon="4.86101">
        <ele>257</ele>
        <time>2015-06-21T09:55:17Z</time>
      </trkpt>
      <trkpt lat="47.06681" lon="4.86096">
        <ele>254</ele>
        <time>2015-06-21T10:00:12Z</time>
      </trkpt>
      <trkpt lat="47.06682" lon="4.86083">
        <ele>255</ele>
        <time>2015-06-21T10:00:25Z</time>
      </trkpt>
      <trkpt lat="47.06685" lon="4.86081">
        <ele>254</ele>
        <time>2015-06-21T10:07:03Z</time>
      </trkpt>
      <trkpt lat="47.06685" lon="4.86085">
        <ele>257</ele>
        <time>2015-06-21T10:15:31Z</time>
      </trkpt>
      <trkpt lat="47.06685" lon="4.86105">
        <ele>260</ele>
        <time>2015-06-21T10:21:17Z</time>
      </trkpt>
      <trkpt lat="47.06684" lon="4.86098">
        <ele>264</ele>
        <time>2015-06-21T10:23:49Z</time>
      </trkpt>
      <trkpt lat="47.06689" lon="4.86104">
        <ele>270</ele>
        <time>2015-06-21T10:30:59Z</time>
      </trkpt>
      <trkpt lat="47.06696" lon="4.86084">
        <ele>270</ele>
        <time>2015-06-21T10:33:56Z</time>
      </trkpt>
      <trkpt lat="47.06696" lon="4.86083">
        <ele>270</ele>
        <time>2015-06-21T10:38:01Z</time>
      </trkpt>
      <trkpt lat="47.067" lon="4.86075">
        <ele>272</ele>
        <time>2015-06-21T10:44:52Z</time>
      </trkpt>
      <trkpt lat="47.06684" lon="4.86098">
        <ele>272</ele>
        <time>2015-06-21T10:46:45Z</time>
      </trkpt>
      <trkpt lat="47.06677" lon="4.86099">
        <ele>272</ele>
        <time>2015-06-21T10:47:05Z</time>
      </trkpt>
      <trkpt lat="47.0667" lon="4.86089">
        <ele>271</ele>
        <time>2015-06-21T10:47:13Z</time>
      </trkpt>
      <trkpt lat="47.06665" lon="4.86081">
        <ele>271</ele>
        <time>2015-06-21T10:47:17Z</time>
      </trkpt>
      <trkpt lat="47.06646" lon="4.86047">
        <ele>269</ele>
        <time>2015-06-21T10:47:36Z</time>
      </trkpt>
      <trkpt lat="47.06644" lon="4.86026">
        <ele>269</ele>
        <time>2015-06-21T10:47:47Z</time>
      </trkpt>
      <trkpt lat="47.06634" lon="4.86009">
        <ele>269</ele>
        <time>2015-06-21T10:48:00Z</time>
      </trkpt>
      <trkpt lat="47.06617" lon="4.85994">
        <ele>268</ele>
        <time>2015-06-21T10:48:15Z</time>
      </trkpt>
      <trkpt lat="47.06603" lon="4.85966">
        <ele>267</ele>
        <time>2015-06-21T10:48:35Z</time>
      </trkpt>
      <trkpt lat="47.06592" lon="4.8596">
        <ele>267</ele>
        <time>2015-06-21T10:48:57Z</time>
      </trkpt>
      <trkpt lat="47.06586" lon="4.85974">
        <ele>266</ele>
        <time>2015-06-21T10:49:13Z</time>
      </trkpt>
      <trkpt lat="47.06588" lon="4.85985">
        <ele>265</ele>
        <time>2015-06-21T10:49:16Z</time>
      </trkpt>
      <trkpt lat="47.06575" lon="4.86023">
        <ele>264</ele>
        <time>2015-06-21T10:49:30Z</time>
      </trkpt>
      <trkpt lat="47.06567" lon="4.86029">
        <ele>264</ele>
        <time>2015-06-21T10:49:36Z</time>
      </trkpt>
      <trkpt lat="47.06533" lon="4.86012">
        <ele>261</ele>
        <time>2015-06-21T10:50:47Z</time>
      </trkpt>
      <trkpt lat="47.06533" lon="4.86013">
        <ele>261</ele>
        <time>2015-06-21T10:51:16Z</time>
      </trkpt>
      <trkpt lat="47.06536" lon="4.86013">
        <ele>261</ele>
        <time>2015-06-21T10:52:40Z</time>
      </trkpt>
      <trkpt lat="47.06565" lon="4.86033">
        <ele>262</ele>
        <time>2015-06-21T10:52:56Z</time>
      </trkpt>
      <trkpt lat="47.06568" lon="4.86038">
        <ele>262</ele>
        <time>2015-06-21T10:52:58Z</time>
      </trkpt>
      <trkpt lat="47.06567" lon="4.86047">
        <ele>262</ele>
        <time>2015-06-21T10:53:02Z</time>
      </trkpt>
      <trkpt lat="47.06537" lon="4.86145">
        <ele>257</ele>
        <time>2015-06-21T10:53:23Z</time>
      </trkpt>
      <trkpt lat="47.06535" lon="4.86153">
        <ele>257</ele>
        <time>2015-06-21T10:53:24Z</time>
      </trkpt>
      <trkpt lat="47.06519" lon="4.862">
        <ele>255</ele>
        <time>2015-06-21T10:53:31Z</time>
      </trkpt>
      <trkpt lat="47.06511" lon="4.8624">
        <ele>254</ele>
        <time>2015-06-21T10:53:36Z</time>
      </trkpt>
      <trkpt lat="47.06511" lon="4.86248">
        <ele>254</ele>
        <time>2015-06-21T10:53:37Z</time>
      </trkpt>
      <trkpt lat="47.06511" lon="4.86304">
        <ele>253</ele>
        <time>2015-06-21T10:53:43Z</time>
      </trkpt>
      <trkpt lat="47.06521" lon="4.86325">
        <ele>253</ele>
        <time>2015-06-21T10:53:46Z</time>
      </trkpt>
      <trkpt lat="47.06524" lon="4.86331">
        <ele>252</ele>
        <time>2015-06-21T10:53:47Z</time>
      </trkpt>
      <trkpt lat="47.06542" lon="4.86366">
        <ele>252</ele>
        <time>2015-06-21T10:53:57Z</time>
      </trkpt>
      <trkpt lat="47.06539" lon="4.86376">
        <ele>252</ele>
        <time>2015-06-21T10:54:25Z</time>
      </trkpt>
      <trkpt lat="47.06523" lon="4.86427">
        <ele>250</ele>
        <time>2015-06-21T10:54:39Z</time>
      </trkpt>
      <trkpt lat="47.06495" lon="4.86514">
        <ele>247</ele>
        <time>2015-06-21T10:54:51Z</time>
      </trkpt>
      <trkpt lat="47.06447" lon="4.86657">
        <ele>245</ele>
        <time>2015-06-21T10:55:07Z</time>
      </trkpt>
      <trkpt lat="47.06425" lon="4.86719">
        <ele>245</ele>
        <time>2015-06-21T10:55:18Z</time>
      </trkpt>
      <trkpt lat="47.06423" lon="4.86726">
        <ele>245</ele>
        <time>2015-06-21T10:55:34Z</time>
      </trkpt>
      <trkpt lat="47.06438" lon="4.86756">
        <ele>244</ele>
        <time>2015-06-21T10:55:43Z</time>
      </trkpt>
      <trkpt lat="47.06515" lon="4.86834">
        <ele>244</ele>
        <time>2015-06-21T10:56:04Z</time>
      </trkpt>
      <trkpt lat="47.06662" lon="4.86973">
        <ele>247</ele>
        <time>2015-06-21T10:56:41Z</time>
      </trkpt>
      <trkpt lat="47.06844" lon="4.87158">
        <ele>242</ele>
        <time>2015-06-21T10:57:21Z</time>
      </trkpt>
      <trkpt lat="47.069" lon="4.87213">
        <ele>239</ele>
        <time>2015-06-21T10:57:29Z</time>
      </trkpt>
      <trkpt lat="47.06907" lon="4.87221">
        <ele>239</ele>
        <time>2015-06-21T10:57:30Z</time>
      </trkpt>
      <trkpt lat="47.06994" lon="4.87305">
        <ele>235</ele>
        <time>2015-06-21T10:57:41Z</time>
      </trkpt>
      <trkpt lat="47.07068" lon="4.87376">
        <ele>232</ele>
        <time>2015-06-21T10:57:50Z</time>
      </trkpt>
      <trkpt lat="47.07181" lon="4.87507">
        <ele>229</ele>
        <time>2015-06-21T10:58:06Z</time>
      </trkpt>
      <trkpt lat="47.07231" lon="4.87633">
        <ele>228</ele>
        <time>2015-06-21T10:58:20Z</time>
      </trkpt>
      <trkpt lat="47.07251" lon="4.8768">
        <ele>229</ele>
        <time>2015-06-21T10:58:27Z</time>
      </trkpt>
      <trkpt lat="47.07262" lon="4.8771">
        <ele>229</ele>
        <time>2015-06-21T10:58:32Z</time>
      </trkpt>
      <trkpt lat="47.07333" lon="4.87834">
        <ele>232</ele>
        <time>2015-06-21T10:58:59Z</time>
      </trkpt>
      <trkpt lat="47.07366" lon="4.87875">
        <ele>232</ele>
        <time>2015-06-21T10:59:10Z</time>
      </trkpt>
      <trkpt lat="47.07466" lon="4.88002">
        <ele>234</ele>
        <time>2015-06-21T10:59:41Z</time>
      </trkpt>
      <trkpt lat="47.07523" lon="4.88072">
        <ele>235</ele>
        <time>2015-06-21T11:00:00Z</time>
      </trkpt>
      <trkpt lat="47.07583" lon="4.88169">
        <ele>237</ele>
        <time>2015-06-21T11:00:21Z</time>
      </trkpt>
      <trkpt lat="47.07621" lon="4.88236">
        <ele>238</ele>
        <time>2015-06-21T11:00:34Z</time>
      </trkpt>
      <trkpt lat="47.07665" lon="4.88338">
        <ele>241</ele>
        <time>2015-06-21T11:00:53Z</time>
      </trkpt>
      <trkpt lat="47.07768" lon="4.88589">
        <ele>245</ele>
        <time>2015-06-21T11:01:40Z</time>
      </trkpt>
      <trkpt lat="47.07819" lon="4.88721">
        <ele>248</ele>
        <time>2015-06-21T11:02:05Z</time>
      </trkpt>
      <trkpt lat="47.07866" lon="4.88819">
        <ele>248</ele>
        <time>2015-06-21T11:02:25Z</time>
      </trkpt>
      <trkpt lat="47.07924" lon="4.88913">
        <ele>245</ele>
        <time>2015-06-21T11:02:42Z</time>
      </trkpt>
      <trkpt lat="47.08022" lon="4.8907">
        <ele>243</ele>
        <time>2015-06-21T11:03:07Z</time>
      </trkpt>
      <trkpt lat="47.08116" lon="4.89225">
        <ele>244</ele>
        <time>2015-06-21T11:03:35Z</time>
      </trkpt>
      <trkpt lat="47.08177" lon="4.89363">
        <ele>247</ele>
        <time>2015-06-21T11:03:59Z</time>
      </trkpt>
      <trkpt lat="47.08314" lon="4.89704">
        <ele>252</ele>
        <time>2015-06-21T11:04:57Z</time>
      </trkpt>
      <trkpt lat="47.08372" lon="4.89873">
        <ele>254</ele>
        <time>2015-06-21T11:05:32Z</time>
      </trkpt>
      <trkpt lat="47.0838" lon="4.89874">
        <ele>254</ele>
        <time>2015-06-21T11:05:36Z</time>
      </trkpt>
      <trkpt lat="47.08387" lon="4.89883">
        <ele>254</ele>
        <time>2015-06-21T11:05:40Z</time>
      </trkpt>
      <trkpt lat="47.08427" lon="4.89983">
        <ele>254</ele>
        <time>2015-06-21T11:06:01Z</time>
      </trkpt>
      <trkpt lat="47.08493" lon="4.90146">
        <ele>252</ele>
        <time>2015-06-21T11:06:28Z</time>
      </trkpt>
      <trkpt lat="47.08584" lon="4.90347">
        <ele>252</ele>
        <time>2015-06-21T11:06:58Z</time>
      </trkpt>
      <trkpt lat="47.08679" lon="4.90462">
        <ele>252</ele>
        <time>2015-06-21T11:07:20Z</time>
      </trkpt>
      <trkpt lat="47.08789" lon="4.90565">
        <ele>251</ele>
        <time>2015-06-21T11:07:45Z</time>
      </trkpt>
      <trkpt lat="47.0886" lon="4.90603">
        <ele>251</ele>
        <time>2015-06-21T11:08:02Z</time>
      </trkpt>
      <trkpt lat="47.08952" lon="4.90657">
        <ele>251</ele>
        <time>2015-06-21T11:08:22Z</time>
      </trkpt>
      <trkpt lat="47.09052" lon="4.90756">
        <ele>251</ele>
        <time>2015-06-21T11:08:44Z</time>
      </trkpt>
      <trkpt lat="47.09285" lon="4.90984">
        <ele>250</ele>
        <time>2015-06-21T11:09:34Z</time>
      </trkpt>
      <trkpt lat="47.09543" lon="4.91178">
        <ele>252</ele>
        <time>2015-06-21T11:10:29Z</time>
      </trkpt>
      <trkpt lat="47.09744" lon="4.91309">
        <ele>252</ele>
        <time>2015-06-21T11:11:14Z</time>
      </trkpt>
      <trkpt lat="47.09918" lon="4.91439">
        <ele>252</ele>
        <time>2015-06-21T11:11:55Z</time>
      </trkpt>
      <trkpt lat="47.10026" lon="4.91558">
        <ele>251</ele>
        <time>2015-06-21T11:12:19Z</time>
      </trkpt>
      <trkpt lat="47.10271" lon="4.91818">
        <ele>249</ele>
        <time>2015-06-21T11:13:13Z</time>
      </trkpt>
      <trkpt lat="47.10326" lon="4.91915">
        <ele>247</ele>
        <time>2015-06-21T11:13:27Z</time>
      </trkpt>
      <trkpt lat="47.10335" lon="4.91938">
        <ele>247</ele>
        <time>2015-06-21T11:13:30Z</time>
      </trkpt>
      <trkpt lat="47.1039" lon="4.92108">
        <ele>248</ele>
        <time>2015-06-21T11:13:53Z</time>
      </trkpt>
      <trkpt lat="47.1048" lon="4.92372">
        <ele>251</ele>
        <time>2015-06-21T11:14:32Z</time>
      </trkpt>
      <trkpt lat="47.10568" lon="4.92495">
        <ele>250</ele>
        <time>2015-06-21T11:14:53Z</time>
      </trkpt>
      <trkpt lat="47.10804" lon="4.92785">
        <ele>246</ele>
        <time>2015-06-21T11:15:44Z</time>
      </trkpt>
      <trkpt lat="47.10874" lon="4.92859">
        <ele>242</ele>
        <time>2015-06-21T11:15:55Z</time>
      </trkpt>
      <trkpt lat="47.10928" lon="4.92916">
        <ele>239</ele>
        <time>2015-06-21T11:16:02Z</time>
      </trkpt>
      <trkpt lat="47.11003" lon="4.92999">
        <ele>235</ele>
        <time>2015-06-21T11:16:11Z</time>
      </trkpt>
      <trkpt lat="47.11051" lon="4.93051">
        <ele>231</ele>
        <time>2015-06-21T11:16:17Z</time>
      </trkpt>
      <trkpt lat="47.11137" lon="4.93143">
        <ele>229</ele>
        <time>2015-06-21T11:16:30Z</time>
      </trkpt>
      <trkpt lat="47.11204" lon="4.93215">
        <ele>232</ele>
        <time>2015-06-21T11:16:46Z</time>
      </trkpt>
      <trkpt lat="47.11233" lon="4.93242">
        <ele>233</ele>
        <time>2015-06-21T11:16:53Z</time>
      </trkpt>
      <trkpt lat="47.11313" lon="4.93302">
        <ele>238</ele>
        <time>2015-06-21T11:17:13Z</time>
      </trkpt>
      <trkpt lat="47.11434" lon="4.93463">
        <ele>242</ele>
        <time>2015-06-21T11:17:48Z</time>
      </trkpt>
      <trkpt lat="47.11558" lon="4.93621">
        <ele>242</ele>
        <time>2015-06-21T11:18:17Z</time>
      </trkpt>
      <trkpt lat="47.11658" lon="4.93718">
        <ele>243</ele>
        <time>2015-06-21T11:18:39Z</time>
      </trkpt>
      <trkpt lat="47.11878" lon="4.93946">
        <ele>241</ele>
        <time>2015-06-21T11:19:32Z</time>
      </trkpt>
      <trkpt lat="47.12099" lon="4.94175">
        <ele>243</ele>
        <time>2015-06-21T11:20:24Z</time>
      </trkpt>
      <trkpt lat="47.12218" lon="4.94271">
        <ele>245</ele>
        <time>2015-06-21T11:20:50Z</time>
      </trkpt>
      <trkpt lat="47.1234" lon="4.94378">
        <ele>246</ele>
        <time>2015-06-21T11:21:18Z</time>
      </trkpt>
      <trkpt lat="47.12578" lon="4.94497">
        <ele>244</ele>
        <time>2015-06-21T11:22:02Z</time>
      </trkpt>
      <trkpt lat="47.12749" lon="4.94532">
        <ele>244</ele>
        <time>2015-06-21T11:22:32Z</time>
      </trkpt>
      <trkpt lat="47.12907" lon="4.94568">
        <ele>245</ele>
        <time>2015-06-21T11:23:01Z</time>
      </trkpt>
      <trkpt lat="47.13021" lon="4.94618">
        <ele>245</ele>
        <time>2015-06-21T11:23:23Z</time>
      </trkpt>
      <trkpt lat="47.13025" lon="4.94622">
        <ele>245</ele>
        <time>2015-06-21T11:23:24Z</time>
      </trkpt>
      <trkpt lat="47.13055" lon="4.94647">
        <ele>245</ele>
        <time>2015-06-21T11:23:31Z</time>
      </trkpt>
      <trkpt lat="47.13254" lon="4.94737">
        <ele>246</ele>
        <time>2015-06-21T11:24:12Z</time>
      </trkpt>
      <trkpt lat="47.13423" lon="4.94777">
        <ele>244</ele>
        <time>2015-06-21T11:24:48Z</time>
      </trkpt>
      <trkpt lat="47.1343" lon="4.94776">
        <ele>244</ele>
        <time>2015-06-21T11:25:02Z</time>
      </trkpt>
      <trkpt lat="47.13458" lon="4.94784">
        <ele>244</ele>
        <time>2015-06-21T11:25:14Z</time>
      </trkpt>
      <trkpt lat="47.13489" lon="4.94798">
        <ele>244</ele>
        <time>2015-06-21T11:25:39Z</time>
      </trkpt>
      <trkpt lat="47.13494" lon="4.94803">
        <ele>244</ele>
        <time>2015-06-21T11:26:08Z</time>
      </trkpt>
      <trkpt lat="47.13496" lon="4.94807">
        <ele>245</ele>
        <time>2015-06-21T11:27:25Z</time>
      </trkpt>
      <trkpt lat="47.13497" lon="4.94802">
        <ele>244</ele>
        <time>2015-06-21T11:29:47Z</time>
      </trkpt>
      <trkpt lat="47.13498" lon="4.94801">
        <ele>245</ele>
        <time>2015-06-21T11:30:00Z</time>
      </trkpt>
      <trkpt lat="47.13514" lon="4.9478">
        <ele>245</ele>
        <time>2015-06-21T11:30:11Z</time>
      </trkpt>
      <trkpt lat="47.13522" lon="4.94781">
        <ele>244</ele>
        <time>2015-06-21T11:30:15Z</time>
      </trkpt>
      <trkpt lat="47.13545" lon="4.94781">
        <ele>243</ele>
        <time>2015-06-21T11:30:22Z</time>
      </trkpt>
      <trkpt lat="47.13564" lon="4.94791">
        <ele>243</ele>
        <time>2015-06-21T11:30:32Z</time>
      </trkpt>
      <trkpt lat="47.13572" lon="4.94802">
        <ele>244</ele>
        <time>2015-06-21T11:30:36Z</time>
      </trkpt>
      <trkpt lat="47.13593" lon="4.9482">
        <ele>244</ele>
        <time>2015-06-21T11:30:45Z</time>
      </trkpt>
      <trkpt lat="47.13616" lon="4.94862">
        <ele>245</ele>
        <time>2015-06-21T11:31:01Z</time>
      </trkpt>
      <trkpt lat="47.13652" lon="4.94886">
        <ele>245</ele>
        <time>2015-06-21T11:31:14Z</time>
      </trkpt>
      <trkpt lat="47.13672" lon="4.94902">
        <ele>245</ele>
        <time>2015-06-21T11:31:29Z</time>
      </trkpt>
      <trkpt lat="47.13712" lon="4.94935">
        <ele>245</ele>
        <time>2015-06-21T11:31:55Z</time>
      </trkpt>
      <trkpt lat="47.13724" lon="4.94951">
        <ele>245</ele>
        <time>2015-06-21T11:32:04Z</time>
      </trkpt>
      <trkpt lat="47.1375" lon="4.94964">
        <ele>245</ele>
        <time>2015-06-21T11:32:39Z</time>
      </trkpt>
      <trkpt lat="47.13751" lon="4.94964">
        <ele>244</ele>
        <time>2015-06-21T11:32:43Z</time>
      </trkpt>
      <trkpt lat="47.13778" lon="4.94916">
        <ele>244</ele>
        <time>2015-06-21T11:32:59Z</time>
      </trkpt>
      <trkpt lat="47.13809" lon="4.9486">
        <ele>244</ele>
        <time>2015-06-21T11:33:13Z</time>
      </trkpt>
      <trkpt lat="47.13812" lon="4.94766">
        <ele>244</ele>
        <time>2015-06-21T11:33:30Z</time>
      </trkpt>
      <trkpt lat="47.13796" lon="4.94722">
        <ele>243</ele>
        <time>2015-06-21T11:33:40Z</time>
      </trkpt>
      <trkpt lat="47.13783" lon="4.94714">
        <ele>243</ele>
        <time>2015-06-21T11:33:45Z</time>
      </trkpt>
      <trkpt lat="47.13709" lon="4.94762">
        <ele>243</ele>
        <time>2015-06-21T11:34:08Z</time>
      </trkpt>
      <trkpt lat="47.13689" lon="4.94762">
        <ele>243</ele>
        <time>2015-06-21T11:34:22Z</time>
      </trkpt>
      <trkpt lat="47.1369" lon="4.94756">
        <ele>242</ele>
        <time>2015-06-21T11:34:37Z</time>
      </trkpt>
      <trkpt lat="47.13666" lon="4.94759">
        <ele>242</ele>
        <time>2015-06-21T11:34:48Z</time>
      </trkpt>
      <trkpt lat="47.13632" lon="4.9478">
        <ele>241</ele>
        <time>2015-06-21T11:34:59Z</time>
      </trkpt>
      <trkpt lat="47.1363" lon="4.94784">
        <ele>241</ele>
        <time>2015-06-21T11:35:00Z</time>
      </trkpt>
      <trkpt lat="47.13619" lon="4.94801">
        <ele>240</ele>
        <time>2015-06-21T11:35:04Z</time>
      </trkpt>
      <trkpt lat="47.13606" lon="4.94824">
        <ele>240</ele>
        <time>2015-06-21T11:35:15Z</time>
      </trkpt>
      <trkpt lat="47.13607" lon="4.9482">
        <ele>240</ele>
        <time>2015-06-21T11:35:18Z</time>
      </trkpt>
      <trkpt lat="47.13582" lon="4.94801">
        <ele>240</ele>
        <time>2015-06-21T11:35:30Z</time>
      </trkpt>
      <trkpt lat="47.13548" lon="4.94783">
        <ele>240</ele>
        <time>2015-06-21T11:35:39Z</time>
      </trkpt>
      <trkpt lat="47.1352" lon="4.948">
        <ele>241</ele>
        <time>2015-06-21T11:35:53Z</time>
      </trkpt>
      <trkpt lat="47.13512" lon="4.94812">
        <ele>241</ele>
        <time>2015-06-21T11:36:03Z</time>
      </trkpt>
      <trkpt lat="47.1351" lon="4.94817">
        <ele>241</ele>
        <time>2015-06-21T11:36:05Z</time>
      </trkpt>
      <trkpt lat="47.1351" lon="4.94821">
        <ele>241</ele>
        <time>2015-06-21T11:36:06Z</time>
      </trkpt>
      <trkpt lat="47.13508" lon="4.94884">
        <ele>240</ele>
        <time>2015-06-21T11:36:20Z</time>
      </trkpt>
      <trkpt lat="47.13516" lon="4.94908">
        <ele>240</ele>
        <time>2015-06-21T11:36:30Z</time>
      </trkpt>
      <trkpt lat="47.13556" lon="4.94953">
        <ele>240</ele>
        <time>2015-06-21T11:36:43Z</time>
      </trkpt>
      <trkpt lat="47.13582" lon="4.94969">
        <ele>241</ele>
        <time>2015-06-21T11:36:53Z</time>
      </trkpt>
      <trkpt lat="47.13616" lon="4.94989">
        <ele>241</ele>
        <time>2015-06-21T11:38:21Z</time>
      </trkpt>
      <trkpt lat="47.13637" lon="4.94999">
        <ele>242</ele>
        <time>2015-06-21T11:45:34Z</time>
      </trkpt>
      <trkpt lat="47.13642" lon="4.95006">
        <ele>242</ele>
        <time>2015-06-21T11:45:38Z</time>
      </trkpt>
      <trkpt lat="47.13672" lon="4.95022">
        <ele>242</ele>
        <time>2015-06-21T11:45:47Z</time>
      </trkpt>
      <trkpt lat="47.13734" lon="4.95047">
        <ele>242</ele>
        <time>2015-06-21T11:46:04Z</time>
      </trkpt>
      <trkpt lat="47.13743" lon="4.95053">
        <ele>243</ele>
        <time>2015-06-21T11:46:09Z</time>
      </trkpt>
      <trkpt lat="47.13747" lon="4.95063">
        <ele>242</ele>
        <time>2015-06-21T11:46:13Z</time>
      </trkpt>
      <trkpt lat="47.1375" lon="4.9507">
        <ele>242</ele>
        <time>2015-06-21T11:46:32Z</time>
      </trkpt>
      <trkpt lat="47.13752" lon="4.95072">
        <ele>242</ele>
        <time>2015-06-21T11:46:44Z</time>
      </trkpt>
      <trkpt lat="47.13756" lon="4.95073">
        <ele>242</ele>
        <time>2015-06-21T11:46:59Z</time>
      </trkpt>
      <trkpt lat="47.13758" lon="4.95069">
        <ele>242</ele>
        <time>2015-06-21T11:47:03Z</time>
      </trkpt>
      <trkpt lat="47.13776" lon="4.95028">
        <ele>243</ele>
        <time>2015-06-21T11:47:17Z</time>
      </trkpt>
      <trkpt lat="47.13802" lon="4.94998">
        <ele>244</ele>
        <time>2015-06-21T11:47:33Z</time>
      </trkpt>
      <trkpt lat="47.13807" lon="4.94999">
        <ele>243</ele>
        <time>2015-06-21T11:47:35Z</time>
      </trkpt>
      <trkpt lat="47.13842" lon="4.95029">
        <ele>243</ele>
        <time>2015-06-21T11:47:46Z</time>
      </trkpt>
      <trkpt lat="47.1389" lon="4.95054">
        <ele>244</ele>
        <time>2015-06-21T11:47:56Z</time>
      </trkpt>
      <trkpt lat="47.13929" lon="4.95088">
        <ele>244</ele>
        <time>2015-06-21T11:48:12Z</time>
      </trkpt>
      <trkpt lat="47.13933" lon="4.95094">
        <ele>244</ele>
        <time>2015-06-21T11:48:30Z</time>
      </trkpt>
      <trkpt lat="47.13956" lon="4.95069">
        <ele>244</ele>
        <time>2015-06-21T13:32:27Z</time>
      </trkpt>
      <trkpt lat="47.14009" lon="4.94966">
        <ele>243</ele>
        <time>2015-06-21T13:32:48Z</time>
      </trkpt>
      <trkpt lat="47.14163" lon="4.94658">
        <ele>245</ele>
        <time>2015-06-21T13:33:48Z</time>
      </trkpt>
      <trkpt lat="47.14225" lon="4.9452">
        <ele>246</ele>
        <time>2015-06-21T13:34:14Z</time>
      </trkpt>
      <trkpt lat="47.1426" lon="4.94456">
        <ele>246</ele>
        <time>2015-06-21T13:34:27Z</time>
      </trkpt>
      <trkpt lat="47.14264" lon="4.94445">
        <ele>246</ele>
        <time>2015-06-21T13:34:29Z</time>
      </trkpt>
      <trkpt lat="47.14312" lon="4.94351">
        <ele>246</ele>
        <time>2015-06-21T13:34:49Z</time>
      </trkpt>
      <trkpt lat="47.14351" lon="4.94221">
        <ele>248</ele>
        <time>2015-06-21T13:35:12Z</time>
      </trkpt>
      <trkpt lat="47.14379" lon="4.94089">
        <ele>247</ele>
        <time>2015-06-21T13:35:33Z</time>
      </trkpt>
      <trkpt lat="47.14411" lon="4.93953">
        <ele>247</ele>
        <time>2015-06-21T13:35:54Z</time>
      </trkpt>
      <trkpt lat="47.1445" lon="4.9382">
        <ele>248</ele>
        <time>2015-06-21T13:36:20Z</time>
      </trkpt>
      <trkpt lat="47.1446" lon="4.93822">
        <ele>248</ele>
        <time>2015-06-21T13:36:23Z</time>
      </trkpt>
      <trkpt lat="47.14463" lon="4.93825">
        <ele>248</ele>
        <time>2015-06-21T13:36:24Z</time>
      </trkpt>
      <trkpt lat="47.1452" lon="4.93866">
        <ele>249</ele>
        <time>2015-06-21T13:36:39Z</time>
      </trkpt>
      <trkpt lat="47.14569" lon="4.93956">
        <ele>249</ele>
        <time>2015-06-21T13:36:57Z</time>
      </trkpt>
      <trkpt lat="47.14594" lon="4.94078">
        <ele>248</ele>
        <time>2015-06-21T13:37:16Z</time>
      </trkpt>
      <trkpt lat="47.14593" lon="4.94172">
        <ele>248</ele>
        <time>2015-06-21T13:37:30Z</time>
      </trkpt>
      <trkpt lat="47.14584" lon="4.94196">
        <ele>248</ele>
        <time>2015-06-21T13:37:34Z</time>
      </trkpt>
      <trkpt lat="47.14524" lon="4.94341">
        <ele>247</ele>
        <time>2015-06-21T13:38:02Z</time>
      </trkpt>
      <trkpt lat="47.14572" lon="4.94385">
        <ele>248</ele>
        <time>2015-06-21T13:38:19Z</time>
      </trkpt>
      <trkpt lat="47.14689" lon="4.94504">
        <ele>252</ele>
        <time>2015-06-21T13:38:58Z</time>
      </trkpt>
      <trkpt lat="47.14821" lon="4.94608">
        <ele>254</ele>
        <time>2015-06-21T13:39:37Z</time>
      </trkpt>
      <trkpt lat="47.1487" lon="4.94655">
        <ele>254</ele>
        <time>2015-06-21T13:39:52Z</time>
      </trkpt>
      <trkpt lat="47.14984" lon="4.94775">
        <ele>257</ele>
        <time>2015-06-21T13:40:29Z</time>
      </trkpt>
      <trkpt lat="47.15004" lon="4.94797">
        <ele>256</ele>
        <time>2015-06-21T13:40:35Z</time>
      </trkpt>
      <trkpt lat="47.15067" lon="4.94835">
        <ele>256</ele>
        <time>2015-06-21T13:40:52Z</time>
      </trkpt>
      <trkpt lat="47.15144" lon="4.94874">
        <ele>253</ele>
        <time>2015-06-21T13:41:09Z</time>
      </trkpt>
      <trkpt lat="47.15199" lon="4.94897">
        <ele>252</ele>
        <time>2015-06-21T13:41:17Z</time>
      </trkpt>
      <trkpt lat="47.15243" lon="4.94895">
        <ele>252</ele>
        <time>2015-06-21T13:41:24Z</time>
      </trkpt>
      <trkpt lat="47.15337" lon="4.94945">
        <ele>249</ele>
        <time>2015-06-21T13:41:43Z</time>
      </trkpt>
      <trkpt lat="47.15469" lon="4.94971">
        <ele>249</ele>
        <time>2015-06-21T13:42:13Z</time>
      </trkpt>
      <trkpt lat="47.15623" lon="4.95028">
        <ele>252</ele>
        <time>2015-06-21T13:42:51Z</time>
      </trkpt>
      <trkpt lat="47.15701" lon="4.95071">
        <ele>254</ele>
        <time>2015-06-21T13:43:15Z</time>
      </trkpt>
      <trkpt lat="47.15791" lon="4.95105">
        <ele>252</ele>
        <time>2015-06-21T13:43:36Z</time>
      </trkpt>
      <trkpt lat="47.15852" lon="4.95123">
        <ele>251</ele>
        <time>2015-06-21T13:43:47Z</time>
      </trkpt>
      <trkpt lat="47.15857" lon="4.95127">
        <ele>251</ele>
        <time>2015-06-21T13:43:48Z</time>
      </trkpt>
      <trkpt lat="47.15862" lon="4.95131">
        <ele>251</ele>
        <time>2015-06-21T13:43:49Z</time>
      </trkpt>
      <trkpt lat="47.15899" lon="4.95204">
        <ele>247</ele>
        <time>2015-06-21T13:43:59Z</time>
      </trkpt>
      <trkpt lat="47.15903" lon="4.9521">
        <ele>248</ele>
        <time>2015-06-21T13:44:00Z</time>
      </trkpt>
      <trkpt lat="47.1593" lon="4.95227">
        <ele>246</ele>
        <time>2015-06-21T13:44:05Z</time>
      </trkpt>
      <trkpt lat="47.16015" lon="4.95246">
        <ele>247</ele>
        <time>2015-06-21T13:44:22Z</time>
      </trkpt>
      <trkpt lat="47.16018" lon="4.95248">
        <ele>247</ele>
        <time>2015-06-21T13:44:23Z</time>
      </trkpt>
      <trkpt lat="47.16033" lon="4.95258">
        <ele>248</ele>
        <time>2015-06-21T13:44:28Z</time>
      </trkpt>
      <trkpt lat="47.16033" lon="4.95272">
        <ele>248</ele>
        <time>2015-06-21T13:44:31Z</time>
      </trkpt>
      <trkpt lat="47.16035" lon="4.95308">
        <ele>247</ele>
        <time>2015-06-21T13:44:37Z</time>
      </trkpt>
      <trkpt lat="47.16038" lon="4.95314">
        <ele>247</ele>
        <time>2015-06-21T13:44:38Z</time>
      </trkpt>
      <trkpt lat="47.16047" lon="4.95338">
        <ele>246</ele>
        <time>2015-06-21T13:44:42Z</time>
      </trkpt>
      <trkpt lat="47.16055" lon="4.95385">
        <ele>245</ele>
        <time>2015-06-21T13:44:49Z</time>
      </trkpt>
      <trkpt lat="47.16055" lon="4.95406">
        <ele>245</ele>
        <time>2015-06-21T13:44:52Z</time>
      </trkpt>
      <trkpt lat="47.16054" lon="4.95434">
        <ele>244</ele>
        <time>2015-06-21T13:44:58Z</time>
      </trkpt>
      <trkpt lat="47.16061" lon="4.95448">
        <ele>244</ele>
        <time>2015-06-21T13:45:02Z</time>
      </trkpt>
      <trkpt lat="47.16064" lon="4.9545">
        <ele>244</ele>
        <time>2015-06-21T13:45:03Z</time>
      </trkpt>
      <trkpt lat="47.16117" lon="4.95524">
        <ele>245</ele>
        <time>2015-06-21T13:45:27Z</time>
      </trkpt>
      <trkpt lat="47.16131" lon="4.95543">
        <ele>244</ele>
        <time>2015-06-21T13:45:33Z</time>
      </trkpt>
      <trkpt lat="47.16155" lon="4.9555">
        <ele>245</ele>
        <time>2015-06-21T13:45:59Z</time>
      </trkpt>
      <trkpt lat="47.16155" lon="4.95552">
        <ele>244</ele>
        <time>2015-06-21T13:47:04Z</time>
      </trkpt>
      <trkpt lat="47.16152" lon="4.9556">
        <ele>243</ele>
        <time>2015-06-21T13:47:08Z</time>
      </trkpt>
      <trkpt lat="47.16148" lon="4.95556">
        <ele>243</ele>
        <time>2015-06-21T13:47:20Z</time>
      </trkpt>
      <trkpt lat="47.16156" lon="4.95554">
        <ele>244</ele>
        <time>2015-06-21T13:47:42Z</time>
      </trkpt>
      <trkpt lat="47.16195" lon="4.95565">
        <ele>245</ele>
        <time>2015-06-21T13:47:59Z</time>
      </trkpt>
      <trkpt lat="47.16244" lon="4.95571">
        <ele>246</ele>
        <time>2015-06-21T13:48:13Z</time>
      </trkpt>
      <trkpt lat="47.16296" lon="4.95568">
        <ele>246</ele>
        <time>2015-06-21T13:48:26Z</time>
      </trkpt>
      <trkpt lat="47.1635" lon="4.95537">
        <ele>247</ele>
        <time>2015-06-21T13:48:42Z</time>
      </trkpt>
      <trkpt lat="47.16363" lon="4.95499">
        <ele>249</ele>
        <time>2015-06-21T13:48:54Z</time>
      </trkpt>
      <trkpt lat="47.16362" lon="4.95502">
        <ele>249</ele>
        <time>2015-06-21T13:48:56Z</time>
      </trkpt>
      <trkpt lat="47.16364" lon="4.95513">
        <ele>248</ele>
        <time>2015-06-21T13:49:00Z</time>
      </trkpt>
      <trkpt lat="47.16369" lon="4.95516">
        <ele>249</ele>
        <time>2015-06-21T13:49:02Z</time>
      </trkpt>
      <trkpt lat="47.16375" lon="4.95516">
        <ele>249</ele>
        <time>2015-06-21T13:49:04Z</time>
      </trkpt>
      <trkpt lat="47.16442" lon="4.95505">
        <ele>248</ele>
        <time>2015-06-21T13:49:21Z</time>
      </trkpt>
      <trkpt lat="47.16496" lon="4.95513">
        <ele>251</ele>
        <time>2015-06-21T13:49:37Z</time>
      </trkpt>
      <trkpt lat="47.16532" lon="4.95511">
        <ele>252</ele>
        <time>2015-06-21T13:49:52Z</time>
      </trkpt>
      <trkpt lat="47.16545" lon="4.95506">
        <ele>252</ele>
        <time>2015-06-21T13:50:07Z</time>
      </trkpt>
      <trkpt lat="47.16597" lon="4.95498">
        <ele>253</ele>
        <time>2015-06-21T13:50:23Z</time>
      </trkpt>
      <trkpt lat="47.1666" lon="4.95495">
        <ele>253</ele>
        <time>2015-06-21T13:50:39Z</time>
      </trkpt>
      <trkpt lat="47.16749" lon="4.95523">
        <ele>252</ele>
        <time>2015-06-21T13:50:59Z</time>
      </trkpt>
      <trkpt lat="47.1691" lon="4.95558">
        <ele>253</ele>
        <time>2015-06-21T13:51:34Z</time>
      </trkpt>
      <trkpt lat="47.16963" lon="4.95552">
        <ele>253</ele>
        <time>2015-06-21T13:51:48Z</time>
      </trkpt>
      <trkpt lat="47.17042" lon="4.95567">
        <ele>252</ele>
        <time>2015-06-21T13:52:05Z</time>
      </trkpt>
      <trkpt lat="47.17113" lon="4.95529">
        <ele>255</ele>
        <time>2015-06-21T13:52:22Z</time>
      </trkpt>
      <trkpt lat="47.1719" lon="4.95465">
        <ele>258</ele>
        <time>2015-06-21T13:52:44Z</time>
      </trkpt>
      <trkpt lat="47.17278" lon="4.95358">
        <ele>262</ele>
        <time>2015-06-21T13:53:15Z</time>
      </trkpt>
      <trkpt lat="47.17329" lon="4.95321">
        <ele>263</ele>
        <time>2015-06-21T13:53:31Z</time>
      </trkpt>
      <trkpt lat="47.17358" lon="4.95324">
        <ele>262</ele>
        <time>2015-06-21T13:53:38Z</time>
      </trkpt>
      <trkpt lat="47.17395" lon="4.9535">
        <ele>259</ele>
        <time>2015-06-21T13:53:44Z</time>
      </trkpt>
      <trkpt lat="47.17403" lon="4.95353">
        <ele>259</ele>
        <time>2015-06-21T13:53:45Z</time>
      </trkpt>
      <trkpt lat="47.17482" lon="4.9536">
        <ele>259</ele>
        <time>2015-06-21T13:53:57Z</time>
      </trkpt>
      <trkpt lat="47.17574" lon="4.95456">
        <ele>259</ele>
        <time>2015-06-21T13:54:21Z</time>
      </trkpt>
      <trkpt lat="47.17638" lon="4.95497">
        <ele>261</ele>
        <time>2015-06-21T13:54:38Z</time>
      </trkpt>
      <trkpt lat="47.17676" lon="4.95487">
        <ele>264</ele>
        <time>2015-06-21T13:54:51Z</time>
      </trkpt>
      <trkpt lat="47.17721" lon="4.95513">
        <ele>266</ele>
        <time>2015-06-21T13:55:07Z</time>
      </trkpt>
      <trkpt lat="47.17743" lon="4.95527">
        <ele>267</ele>
        <time>2015-06-21T13:55:21Z</time>
      </trkpt>
      <trkpt lat="47.17744" lon="4.95528">
        <ele>267</ele>
        <time>2015-06-21T13:55:42Z</time>
      </trkpt>
      <trkpt lat="47.17746" lon="4.95527">
        <ele>266</ele>
        <time>2015-06-21T13:57:56Z</time>
      </trkpt>
      <trkpt lat="47.17785" lon="4.95542">
        <ele>267</ele>
        <time>2015-06-21T13:58:13Z</time>
      </trkpt>
      <trkpt lat="47.17859" lon="4.95586">
        <ele>268</ele>
        <time>2015-06-21T13:58:36Z</time>
      </trkpt>
      <trkpt lat="47.17941" lon="4.95624">
        <ele>271</ele>
        <time>2015-06-21T13:59:00Z</time>
      </trkpt>
      <trkpt lat="47.18099" lon="4.95722">
        <ele>271</ele>
        <time>2015-06-21T13:59:42Z</time>
      </trkpt>
      <trkpt lat="47.18156" lon="4.95758">
        <ele>267</ele>
        <time>2015-06-21T13:59:53Z</time>
      </trkpt>
      <trkpt lat="47.18187" lon="4.95779">
        <ele>265</ele>
        <time>2015-06-21T14:00:02Z</time>
      </trkpt>
      <trkpt lat="47.18253" lon="4.95827">
        <ele>263</ele>
        <time>2015-06-21T14:00:17Z</time>
      </trkpt>
      <trkpt lat="47.18318" lon="4.95856">
        <ele>262</ele>
        <time>2015-06-21T14:00:40Z</time>
      </trkpt>
      <trkpt lat="47.18362" lon="4.95878">
        <ele>261</ele>
        <time>2015-06-21T14:00:54Z</time>
      </trkpt>
      <trkpt lat="47.18445" lon="4.95906">
        <ele>261</ele>
        <time>2015-06-21T14:01:15Z</time>
      </trkpt>
      <trkpt lat="47.1852" lon="4.95947">
        <ele>259</ele>
        <time>2015-06-21T14:01:32Z</time>
      </trkpt>
      <trkpt lat="47.18598" lon="4.95983">
        <ele>257</ele>
        <time>2015-06-21T14:01:45Z</time>
      </trkpt>
      <trkpt lat="47.18631" lon="4.96015">
        <ele>258</ele>
        <time>2015-06-21T14:01:56Z</time>
      </trkpt>
      <trkpt lat="47.18669" lon="4.96026">
        <ele>259</ele>
        <time>2015-06-21T14:02:07Z</time>
      </trkpt>
      <trkpt lat="47.1884" lon="4.9605">
        <ele>263</ele>
        <time>2015-06-21T14:02:53Z</time>
      </trkpt>
      <trkpt lat="47.18929" lon="4.96051">
        <ele>264</ele>
        <time>2015-06-21T14:03:15Z</time>
      </trkpt>
      <trkpt lat="47.19032" lon="4.96055">
        <ele>264</ele>
        <time>2015-06-21T14:03:40Z</time>
      </trkpt>
      <trkpt lat="47.19099" lon="4.96011">
        <ele>264</ele>
        <time>2015-06-21T14:03:58Z</time>
      </trkpt>
      <trkpt lat="47.19237" lon="4.95998">
        <ele>266</ele>
        <time>2015-06-21T14:04:36Z</time>
      </trkpt>
      <trkpt lat="47.19273" lon="4.95997">
        <ele>265</ele>
        <time>2015-06-21T14:04:45Z</time>
      </trkpt>
      <trkpt lat="47.19347" lon="4.96038">
        <ele>264</ele>
        <time>2015-06-21T14:05:03Z</time>
      </trkpt>
      <trkpt lat="47.19526" lon="4.96153">
        <ele>264</ele>
        <time>2015-06-21T14:05:44Z</time>
      </trkpt>
      <trkpt lat="47.19538" lon="4.96164">
        <ele>264</ele>
        <time>2015-06-21T14:05:47Z</time>
      </trkpt>
      <trkpt lat="47.19558" lon="4.96182">
        <ele>263</ele>
        <time>2015-06-21T14:05:52Z</time>
      </trkpt>
      <trkpt lat="47.19608" lon="4.96192">
        <ele>264</ele>
        <time>2015-06-21T14:06:06Z</time>
      </trkpt>
      <trkpt lat="47.19718" lon="4.96211">
        <ele>269</ele>
        <time>2015-06-21T14:06:36Z</time>
      </trkpt>
      <trkpt lat="47.19772" lon="4.96227">
        <ele>272</ele>
        <time>2015-06-21T14:06:52Z</time>
      </trkpt>
      <trkpt lat="47.19839" lon="4.96244">
        <ele>275</ele>
        <time>2015-06-21T14:07:12Z</time>
      </trkpt>
      <trkpt lat="47.19877" lon="4.96218">
        <ele>277</ele>
        <time>2015-06-21T14:07:24Z</time>
      </trkpt>
      <trkpt lat="47.19912" lon="4.96243">
        <ele>277</ele>
        <time>2015-06-21T14:07:37Z</time>
      </trkpt>
      <trkpt lat="47.1996" lon="4.96343">
        <ele>275</ele>
        <time>2015-06-21T14:07:53Z</time>
      </trkpt>
      <trkpt lat="47.19979" lon="4.96376">
        <ele>274</ele>
        <time>2015-06-21T14:07:58Z</time>
      </trkpt>
      <trkpt lat="47.20089" lon="4.96434">
        <ele>271</ele>
        <time>2015-06-21T14:08:16Z</time>
      </trkpt>
      <trkpt lat="47.20205" lon="4.96482">
        <ele>268</ele>
        <time>2015-06-21T14:08:34Z</time>
      </trkpt>
      <trkpt lat="47.20298" lon="4.96517">
        <ele>266</ele>
        <time>2015-06-21T14:08:50Z</time>
      </trkpt>
      <trkpt lat="47.20361" lon="4.9653">
        <ele>266</ele>
        <time>2015-06-21T14:09:03Z</time>
      </trkpt>
      <trkpt lat="47.20424" lon="4.96546">
        <ele>265</ele>
        <time>2015-06-21T14:09:17Z</time>
      </trkpt>
      <trkpt lat="47.2052" lon="4.96569">
        <ele>265</ele>
        <time>2015-06-21T14:09:37Z</time>
      </trkpt>
      <trkpt lat="47.20631" lon="4.96573">
        <ele>267</ele>
        <time>2015-06-21T14:10:00Z</time>
      </trkpt>
      <trkpt lat="47.20634" lon="4.96571">
        <ele>267</ele>
        <time>2015-06-21T14:10:01Z</time>
      </trkpt>
      <trkpt lat="47.20693" lon="4.96544">
        <ele>270</ele>
        <time>2015-06-21T14:10:17Z</time>
      </trkpt>
      <trkpt lat="47.20762" lon="4.96535">
        <ele>273</ele>
        <time>2015-06-21T14:10:35Z</time>
      </trkpt>
      <trkpt lat="47.20842" lon="4.96529">
        <ele>276</ele>
        <time>2015-06-21T14:10:55Z</time>
      </trkpt>
      <trkpt lat="47.20939" lon="4.96532">
        <ele>277</ele>
        <time>2015-06-21T14:11:18Z</time>
      </trkpt>
      <trkpt lat="47.20977" lon="4.96558">
        <ele>277</ele>
        <time>2015-06-21T14:11:27Z</time>
      </trkpt>
      <trkpt lat="47.21063" lon="4.96601">
        <ele>276</ele>
        <time>2015-06-21T14:11:45Z</time>
      </trkpt>
      <trkpt lat="47.21158" lon="4.96637">
        <ele>272</ele>
        <time>2015-06-21T14:12:00Z</time>
      </trkpt>
      <trkpt lat="47.21268" lon="4.96672">
        <ele>272</ele>
        <time>2015-06-21T14:12:18Z</time>
      </trkpt>
      <trkpt lat="47.21384" lon="4.96728">
        <ele>271</ele>
        <time>2015-06-21T14:12:39Z</time>
      </trkpt>
      <trkpt lat="47.21493" lon="4.96719">
        <ele>271</ele>
        <time>2015-06-21T14:12:58Z</time>
      </trkpt>
      <trkpt lat="47.21596" lon="4.96768">
        <ele>272</ele>
        <time>2015-06-21T14:13:17Z</time>
      </trkpt>
      <trkpt lat="47.21715" lon="4.96814">
        <ele>269</ele>
        <time>2015-06-21T14:13:37Z</time>
      </trkpt>
      <trkpt lat="47.21827" lon="4.96843">
        <ele>270</ele>
        <time>2015-06-21T14:13:55Z</time>
      </trkpt>
      <trkpt lat="47.21908" lon="4.96863">
        <ele>270</ele>
        <time>2015-06-21T14:14:10Z</time>
      </trkpt>
      <trkpt lat="47.22026" lon="4.96914">
        <ele>271</ele>
        <time>2015-06-21T14:14:33Z</time>
      </trkpt>
      <trkpt lat="47.22247" lon="4.96996">
        <ele>273</ele>
        <time>2015-06-21T14:15:17Z</time>
      </trkpt>
      <trkpt lat="47.22252" lon="4.96996">
        <ele>273</ele>
        <time>2015-06-21T14:15:18Z</time>
      </trkpt>
      <trkpt lat="47.22336" lon="4.96984">
        <ele>274</ele>
        <time>2015-06-21T14:15:35Z</time>
      </trkpt>
      <trkpt lat="47.22389" lon="4.96969">
        <ele>274</ele>
        <time>2015-06-21T14:15:50Z</time>
      </trkpt>
      <trkpt lat="47.22413" lon="4.96975">
        <ele>274</ele>
        <time>2015-06-21T14:16:00Z</time>
      </trkpt>
      <trkpt lat="47.22448" lon="4.97028">
        <ele>273</ele>
        <time>2015-06-21T14:16:15Z</time>
      </trkpt>
      <trkpt lat="47.22455" lon="4.97057">
        <ele>272</ele>
        <time>2015-06-21T14:16:21Z</time>
      </trkpt>
      <trkpt lat="47.22465" lon="4.97066">
        <ele>272</ele>
        <time>2015-06-21T14:16:25Z</time>
      </trkpt>
      <trkpt lat="47.22468" lon="4.97067">
        <ele>272</ele>
        <time>2015-06-21T14:16:26Z</time>
      </trkpt>
      <trkpt lat="47.2254" lon="4.97094">
        <ele>272</ele>
        <time>2015-06-21T14:16:51Z</time>
      </trkpt>
      <trkpt lat="47.22566" lon="4.97099">
        <ele>272</ele>
        <time>2015-06-21T14:16:59Z</time>
      </trkpt>
      <trkpt lat="47.22572" lon="4.97074">
        <ele>271</ele>
        <time>2015-06-21T14:17:07Z</time>
      </trkpt>
      <trkpt lat="47.22564" lon="4.97043">
        <ele>272</ele>
        <time>2015-06-21T14:17:19Z</time>
      </trkpt>
      <trkpt lat="47.22566" lon="4.97019">
        <ele>272</ele>
        <time>2015-06-21T14:17:30Z</time>
      </trkpt>
      <trkpt lat="47.22565" lon="4.97019">
        <ele>272</ele>
        <time>2015-06-21T14:17:31Z</time>
      </trkpt>
      <trkpt lat="47.22539" lon="4.9702">
        <ele>273</ele>
        <time>2015-06-21T14:17:42Z</time>
      </trkpt>
      <trkpt lat="47.22502" lon="4.97049">
        <ele>273</ele>
        <time>2015-06-21T14:17:56Z</time>
      </trkpt>
      <trkpt lat="47.22487" lon="4.9707">
        <ele>272</ele>
        <time>2015-06-21T14:18:02Z</time>
      </trkpt>
      <trkpt lat="47.22489" lon="4.97076">
        <ele>272</ele>
        <time>2015-06-21T14:18:04Z</time>
      </trkpt>
      <trkpt lat="47.22519" lon="4.97085">
        <ele>272</ele>
        <time>2015-06-21T14:18:17Z</time>
      </trkpt>
      <trkpt lat="47.2255" lon="4.97099">
        <ele>271</ele>
        <time>2015-06-21T14:18:28Z</time>
      </trkpt>
      <trkpt lat="47.22552" lon="4.97103">
        <ele>271</ele>
        <time>2015-06-21T14:18:30Z</time>
      </trkpt>
      <trkpt lat="47.22553" lon="4.97104">
        <ele>271</ele>
        <time>2015-06-21T14:18:31Z</time>
      </trkpt>
      <trkpt lat="47.22578" lon="4.97104">
        <ele>271</ele>
        <time>2015-06-21T14:18:42Z</time>
      </trkpt>
      <trkpt lat="47.22581" lon="4.97101">
        <ele>271</ele>
        <time>2015-06-21T14:18:55Z</time>
      </trkpt>
      <trkpt lat="47.22584" lon="4.97069">
        <ele>271</ele>
        <time>2015-06-21T14:19:09Z</time>
      </trkpt>
      <trkpt lat="47.22585" lon="4.97014">
        <ele>271</ele>
        <time>2015-06-21T14:19:29Z</time>
      </trkpt>
      <trkpt lat="47.22603" lon="4.9695">
        <ele>272</ele>
        <time>2015-06-21T14:19:45Z</time>
      </trkpt>
      <trkpt lat="47.22609" lon="4.96917">
        <ele>273</ele>
        <time>2015-06-21T14:19:53Z</time>
      </trkpt>
      <trkpt lat="47.22702" lon="4.96887">
        <ele>275</ele>
        <time>2015-06-21T14:20:23Z</time>
      </trkpt>
      <trkpt lat="47.22735" lon="4.96844">
        <ele>276</ele>
        <time>2015-06-21T14:20:36Z</time>
      </trkpt>
      <trkpt lat="47.22777" lon="4.96756">
        <ele>277</ele>
        <time>2015-06-21T14:20:56Z</time>
      </trkpt>
      <trkpt lat="47.22828" lon="4.96635">
        <ele>281</ele>
        <time>2015-06-21T14:21:25Z</time>
      </trkpt>
      <trkpt lat="47.22856" lon="4.96593">
        <ele>284</ele>
        <time>2015-06-21T14:21:38Z</time>
      </trkpt>
      <trkpt lat="47.22875" lon="4.96541">
        <ele>287</ele>
        <time>2015-06-21T14:21:51Z</time>
      </trkpt>
      <trkpt lat="47.22896" lon="4.96498">
        <ele>290</ele>
        <time>2015-06-21T14:22:03Z</time>
      </trkpt>
      <trkpt lat="47.22931" lon="4.96484">
        <ele>292</ele>
        <time>2015-06-21T14:22:16Z</time>
      </trkpt>
      <trkpt lat="47.22977" lon="4.96476">
        <ele>295</ele>
        <time>2015-06-21T14:22:32Z</time>
      </trkpt>
      <trkpt lat="47.2299" lon="4.96483">
        <ele>295</ele>
        <time>2015-06-21T14:22:38Z</time>
      </trkpt>
      <trkpt lat="47.22995" lon="4.96484">
        <ele>296</ele>
        <time>2015-06-21T14:22:43Z</time>
      </trkpt>
      <trkpt lat="47.22993" lon="4.96483">
        <ele>295</ele>
        <time>2015-06-21T14:22:49Z</time>
      </trkpt>
      <trkpt lat="47.22989" lon="4.96486">
        <ele>295</ele>
        <time>2015-06-21T14:23:07Z</time>
      </trkpt>
      <trkpt lat="47.22968" lon="4.96488">
        <ele>295</ele>
        <time>2015-06-21T14:25:06Z</time>
      </trkpt>
      <trkpt lat="47.22951" lon="4.96491">
        <ele>294</ele>
        <time>2015-06-21T14:26:30Z</time>
      </trkpt>
      <trkpt lat="47.22932" lon="4.96496">
        <ele>293</ele>
        <time>2015-06-21T14:26:46Z</time>
      </trkpt>
      <trkpt lat="47.22933" lon="4.96495">
        <ele>292</ele>
        <time>2015-06-21T14:29:08Z</time>
      </trkpt>
      <trkpt lat="47.22931" lon="4.96495">
        <ele>292</ele>
        <time>2015-06-21T14:29:09Z</time>
      </trkpt>
      <trkpt lat="47.22898" lon="4.96499">
        <ele>291</ele>
        <time>2015-06-21T14:29:18Z</time>
      </trkpt>
      <trkpt lat="47.2288" lon="4.9651">
        <ele>290</ele>
        <time>2015-06-21T14:29:22Z</time>
      </trkpt>
      <trkpt lat="47.22876" lon="4.96525">
        <ele>289</ele>
        <time>2015-06-21T14:29:24Z</time>
      </trkpt>
      <trkpt lat="47.22856" lon="4.96593">
        <ele>286</ele>
        <time>2015-06-21T14:29:31Z</time>
      </trkpt>
      <trkpt lat="47.22839" lon="4.96622">
        <ele>284</ele>
        <time>2015-06-21T14:29:34Z</time>
      </trkpt>
      <trkpt lat="47.22827" lon="4.96639">
        <ele>283</ele>
        <time>2015-06-21T14:29:36Z</time>
      </trkpt>
      <trkpt lat="47.22811" lon="4.96669">
        <ele>280</ele>
        <time>2015-06-21T14:29:40Z</time>
      </trkpt>
      <trkpt lat="47.22808" lon="4.96685">
        <ele>280</ele>
        <time>2015-06-21T14:29:44Z</time>
      </trkpt>
      <trkpt lat="47.22813" lon="4.9669">
        <ele>280</ele>
        <time>2015-06-21T14:29:46Z</time>
      </trkpt>
      <trkpt lat="47.22881" lon="4.96718">
        <ele>283</ele>
        <time>2015-06-21T14:30:05Z</time>
      </trkpt>
      <trkpt lat="47.23029" lon="4.9675">
        <ele>287</ele>
        <time>2015-06-21T14:30:44Z</time>
      </trkpt>
      <trkpt lat="47.23176" lon="4.96788">
        <ele>291</ele>
        <time>2015-06-21T14:31:23Z</time>
      </trkpt>
      <trkpt lat="47.23242" lon="4.96807">
        <ele>291</ele>
        <time>2015-06-21T14:31:41Z</time>
      </trkpt>
      <trkpt lat="47.23389" lon="4.96891">
        <ele>290</ele>
        <time>2015-06-21T14:32:19Z</time>
      </trkpt>
      <trkpt lat="47.23409" lon="4.96898">
        <ele>290</ele>
        <time>2015-06-21T14:32:24Z</time>
      </trkpt>
      <trkpt lat="47.23615" lon="4.96971">
        <ele>290</ele>
        <time>2015-06-21T14:33:11Z</time>
      </trkpt>
      <trkpt lat="47.23725" lon="4.9701">
        <ele>289</ele>
        <time>2015-06-21T14:33:32Z</time>
      </trkpt>
      <trkpt lat="47.23795" lon="4.9702">
        <ele>290</ele>
        <time>2015-06-21T14:33:49Z</time>
      </trkpt>
      <trkpt lat="47.23851" lon="4.9703">
        <ele>290</ele>
        <time>2015-06-21T14:34:05Z</time>
      </trkpt>
      <trkpt lat="47.23929" lon="4.97087">
        <ele>292</ele>
        <time>2015-06-21T14:34:25Z</time>
      </trkpt>
      <trkpt lat="47.23937" lon="4.97092">
        <ele>292</ele>
        <time>2015-06-21T14:34:27Z</time>
      </trkpt>
      <trkpt lat="47.24065" lon="4.97167">
        <ele>290</ele>
        <time>2015-06-21T14:34:54Z</time>
      </trkpt>
      <trkpt lat="47.24171" lon="4.97209">
        <ele>289</ele>
        <time>2015-06-21T14:35:13Z</time>
      </trkpt>
      <trkpt lat="47.24182" lon="4.97208">
        <ele>289</ele>
        <time>2015-06-21T14:35:15Z</time>
      </trkpt>
      <trkpt lat="47.24192" lon="4.97205">
        <ele>289</ele>
        <time>2015-06-21T14:35:17Z</time>
      </trkpt>
      <trkpt lat="47.24266" lon="4.97207">
        <ele>291</ele>
        <time>2015-06-21T14:35:33Z</time>
      </trkpt>
      <trkpt lat="47.2427" lon="4.97209">
        <ele>291</ele>
        <time>2015-06-21T14:35:34Z</time>
      </trkpt>
      <trkpt lat="47.24346" lon="4.97234">
        <ele>289</ele>
        <time>2015-06-21T14:35:50Z</time>
      </trkpt>
      <trkpt lat="47.24351" lon="4.97237">
        <ele>289</ele>
        <time>2015-06-21T14:35:51Z</time>
      </trkpt>
      <trkpt lat="47.24356" lon="4.97239">
        <ele>289</ele>
        <time>2015-06-21T14:35:52Z</time>
      </trkpt>
      <trkpt lat="47.24369" lon="4.97251">
        <ele>289</ele>
        <time>2015-06-21T14:35:55Z</time>
      </trkpt>
      <trkpt lat="47.24454" lon="4.97289">
        <ele>287</ele>
        <time>2015-06-21T14:36:12Z</time>
      </trkpt>
      <trkpt lat="47.24508" lon="4.9731">
        <ele>288</ele>
        <time>2015-06-21T14:36:28Z</time>
      </trkpt>
      <trkpt lat="47.24559" lon="4.97334">
        <ele>289</ele>
        <time>2015-06-21T14:36:44Z</time>
      </trkpt>
      <trkpt lat="47.2458" lon="4.97349">
        <ele>289</ele>
        <time>2015-06-21T14:36:48Z</time>
      </trkpt>
      <trkpt lat="47.24598" lon="4.97363">
        <ele>288</ele>
        <time>2015-06-21T14:36:53Z</time>
      </trkpt>
      <trkpt lat="47.24642" lon="4.97392">
        <ele>287</ele>
        <time>2015-06-21T14:37:05Z</time>
      </trkpt>
      <trkpt lat="47.24651" lon="4.97393">
        <ele>287</ele>
        <time>2015-06-21T14:37:08Z</time>
      </trkpt>
      <trkpt lat="47.24653" lon="4.97393">
        <ele>287</ele>
        <time>2015-06-21T14:37:09Z</time>
      </trkpt>
      <trkpt lat="47.24713" lon="4.97405">
        <ele>288</ele>
        <time>2015-06-21T14:37:19Z</time>
      </trkpt>
      <trkpt lat="47.24825" lon="4.97459">
        <ele>291</ele>
        <time>2015-06-21T14:37:46Z</time>
      </trkpt>
      <trkpt lat="47.24896" lon="4.97493">
        <ele>291</ele>
        <time>2015-06-21T14:38:04Z</time>
      </trkpt>
      <trkpt lat="47.25067" lon="4.97574">
        <ele>290</ele>
        <time>2015-06-21T14:38:44Z</time>
      </trkpt>
      <trkpt lat="47.25174" lon="4.97618">
        <ele>290</ele>
        <time>2015-06-21T14:39:06Z</time>
      </trkpt>
      <trkpt lat="47.2534" lon="4.97687">
        <ele>289</ele>
        <time>2015-06-21T14:39:40Z</time>
      </trkpt>
      <trkpt lat="47.25447" lon="4.97709">
        <ele>290</ele>
        <time>2015-06-21T14:40:04Z</time>
      </trkpt>
      <trkpt lat="47.25576" lon="4.9772">
        <ele>292</ele>
        <time>2015-06-21T14:40:33Z</time>
      </trkpt>
      <trkpt lat="47.25665" lon="4.97753">
        <ele>292</ele>
        <time>2015-06-21T14:40:53Z</time>
      </trkpt>
      <trkpt lat="47.25769" lon="4.97799">
        <ele>289</ele>
        <time>2015-06-21T14:41:14Z</time>
      </trkpt>
      <trkpt lat="47.25814" lon="4.9783">
        <ele>287</ele>
        <time>2015-06-21T14:41:21Z</time>
      </trkpt>
      <trkpt lat="47.25868" lon="4.97901">
        <ele>287</ele>
        <time>2015-06-21T14:41:31Z</time>
      </trkpt>
      <trkpt lat="47.25878" lon="4.9791">
        <ele>286</ele>
        <time>2015-06-21T14:41:33Z</time>
      </trkpt>
      <trkpt lat="47.25883" lon="4.97914">
        <ele>286</ele>
        <time>2015-06-21T14:41:34Z</time>
      </trkpt>
      <trkpt lat="47.259" lon="4.9792">
        <ele>287</ele>
        <time>2015-06-21T14:41:37Z</time>
      </trkpt>
      <trkpt lat="47.25967" lon="4.97921">
        <ele>287</ele>
        <time>2015-06-21T14:41:50Z</time>
      </trkpt>
      <trkpt lat="47.26018" lon="4.97931">
        <ele>287</ele>
        <time>2015-06-21T14:42:05Z</time>
      </trkpt>
      <trkpt lat="47.2605" lon="4.97957">
        <ele>287</ele>
        <time>2015-06-21T14:42:15Z</time>
      </trkpt>
      <trkpt lat="47.26073" lon="4.98052">
        <ele>285</ele>
        <time>2015-06-21T14:42:35Z</time>
      </trkpt>
      <trkpt lat="47.26133" lon="4.98108">
        <ele>284</ele>
        <time>2015-06-21T14:42:51Z</time>
      </trkpt>
      <trkpt lat="47.26204" lon="4.98229">
        <ele>282</ele>
        <time>2015-06-21T14:43:12Z</time>
      </trkpt>
      <trkpt lat="47.26284" lon="4.98365">
        <ele>279</ele>
        <time>2015-06-21T14:43:32Z</time>
      </trkpt>
      <trkpt lat="47.26391" lon="4.98436">
        <ele>276</ele>
        <time>2015-06-21T14:43:48Z</time>
      </trkpt>
      <trkpt lat="47.26518" lon="4.98489">
        <ele>275</ele>
        <time>2015-06-21T14:44:09Z</time>
      </trkpt>
      <trkpt lat="47.26604" lon="4.98537">
        <ele>277</ele>
        <time>2015-06-21T14:44:26Z</time>
      </trkpt>
      <trkpt lat="47.26731" lon="4.986">
        <ele>277</ele>
        <time>2015-06-21T14:44:54Z</time>
      </trkpt>
      <trkpt lat="47.26749" lon="4.98609">
        <ele>277</ele>
        <time>2015-06-21T14:44:58Z</time>
      </trkpt>
      <trkpt lat="47.26797" lon="4.98655">
        <ele>277</ele>
        <time>2015-06-21T14:45:09Z</time>
      </trkpt>
      <trkpt lat="47.26827" lon="4.9868">
        <ele>277</ele>
        <time>2015-06-21T14:45:19Z</time>
      </trkpt>
      <trkpt lat="47.26871" lon="4.98715">
        <ele>276</ele>
        <time>2015-06-21T14:45:32Z</time>
      </trkpt>
      <trkpt lat="47.26915" lon="4.98741">
        <ele>275</ele>
        <time>2015-06-21T14:45:41Z</time>
      </trkpt>
      <trkpt lat="47.26978" lon="4.98762">
        <ele>275</ele>
        <time>2015-06-21T14:45:50Z</time>
      </trkpt>
      <trkpt lat="47.27042" lon="4.98819">
        <ele>274</ele>
        <time>2015-06-21T14:46:06Z</time>
      </trkpt>
      <trkpt lat="47.27046" lon="4.98822">
        <ele>273</ele>
        <time>2015-06-21T14:46:15Z</time>
      </trkpt>
      <trkpt lat="47.27056" lon="4.98834">
        <ele>273</ele>
        <time>2015-06-21T14:47:03Z</time>
      </trkpt>
      <trkpt lat="47.27082" lon="4.98861">
        <ele>273</ele>
        <time>2015-06-21T14:47:14Z</time>
      </trkpt>
      <trkpt lat="47.27104" lon="4.98875">
        <ele>272</ele>
        <time>2015-06-21T14:47:19Z</time>
      </trkpt>
      <trkpt lat="47.27141" lon="4.98886">
        <ele>271</ele>
        <time>2015-06-21T14:47:27Z</time>
      </trkpt>
      <trkpt lat="47.27147" lon="4.98891">
        <ele>271</ele>
        <time>2015-06-21T14:47:29Z</time>
      </trkpt>
      <trkpt lat="47.27204" lon="4.98927">
        <ele>270</ele>
        <time>2015-06-21T14:47:40Z</time>
      </trkpt>
      <trkpt lat="47.27269" lon="4.98972">
        <ele>269</ele>
        <time>2015-06-21T14:47:52Z</time>
      </trkpt>
      <trkpt lat="47.27298" lon="4.99013">
        <ele>270</ele>
        <time>2015-06-21T14:48:02Z</time>
      </trkpt>
      <trkpt lat="47.27338" lon="4.99053">
        <ele>271</ele>
        <time>2015-06-21T14:48:13Z</time>
      </trkpt>
      <trkpt lat="47.2742" lon="4.99128">
        <ele>271</ele>
        <time>2015-06-21T14:48:33Z</time>
      </trkpt>
      <trkpt lat="47.27518" lon="4.99205">
        <ele>273</ele>
        <time>2015-06-21T14:48:56Z</time>
      </trkpt>
      <trkpt lat="47.27602" lon="4.99295">
        <ele>274</ele>
        <time>2015-06-21T14:49:17Z</time>
      </trkpt>
      <trkpt lat="47.27667" lon="4.99392">
        <ele>274</ele>
        <time>2015-06-21T14:49:34Z</time>
      </trkpt>
      <trkpt lat="47.27742" lon="4.99513">
        <ele>274</ele>
        <time>2015-06-21T14:49:54Z</time>
      </trkpt>
      <trkpt lat="47.27824" lon="4.9958">
        <ele>274</ele>
        <time>2015-06-21T14:50:11Z</time>
      </trkpt>
      <trkpt lat="47.27844" lon="4.99588">
        <ele>274</ele>
        <time>2015-06-21T14:50:15Z</time>
      </trkpt>
      <trkpt lat="47.27964" lon="4.99688">
        <ele>273</ele>
        <time>2015-06-21T14:50:41Z</time>
      </trkpt>
      <trkpt lat="47.2805" lon="4.99774">
        <ele>272</ele>
        <time>2015-06-21T14:51:00Z</time>
      </trkpt>
      <trkpt lat="47.28263" lon="4.99986">
        <ele>268</ele>
        <time>2015-06-21T14:51:43Z</time>
      </trkpt>
      <trkpt lat="47.28378" lon="5.00101">
        <ele>265</ele>
        <time>2015-06-21T14:52:06Z</time>
      </trkpt>
      <trkpt lat="47.2843" lon="5.00162">
        <ele>265</ele>
        <time>2015-06-21T14:52:17Z</time>
      </trkpt>
      <trkpt lat="47.28462" lon="5.00203">
        <ele>264</ele>
        <time>2015-06-21T14:52:24Z</time>
      </trkpt>
      <trkpt lat="47.28518" lon="5.00291">
        <ele>262</ele>
        <time>2015-06-21T14:52:38Z</time>
      </trkpt>
      <trkpt lat="47.28529" lon="5.00312">
        <ele>263</ele>
        <time>2015-06-21T14:52:41Z</time>
      </trkpt>
      <trkpt lat="47.28532" lon="5.0032">
        <ele>262</ele>
        <time>2015-06-21T14:52:42Z</time>
      </trkpt>
      <trkpt lat="47.28549" lon="5.00335">
        <ele>262</ele>
        <time>2015-06-21T14:52:46Z</time>
      </trkpt>
      <trkpt lat="47.2857" lon="5.00335">
        <ele>262</ele>
        <time>2015-06-21T14:52:51Z</time>
      </trkpt>
      <trkpt lat="47.28575" lon="5.00338">
        <ele>262</ele>
        <time>2015-06-21T14:52:52Z</time>
      </trkpt>
      <trkpt lat="47.28673" lon="5.00416">
        <ele>260</ele>
        <time>2015-06-21T14:53:12Z</time>
      </trkpt>
      <trkpt lat="47.28858" lon="5.00595">
        <ele>257</ele>
        <time>2015-06-21T14:53:49Z</time>
      </trkpt>
      <trkpt lat="47.28908" lon="5.0064">
        <ele>257</ele>
        <time>2015-06-21T14:54:00Z</time>
      </trkpt>
      <trkpt lat="47.29058" lon="5.00782">
        <ele>257</ele>
        <time>2015-06-21T14:54:34Z</time>
      </trkpt>
      <trkpt lat="47.29148" lon="5.00863">
        <ele>256</ele>
        <time>2015-06-21T14:54:53Z</time>
      </trkpt>
      <trkpt lat="47.29341" lon="5.00983">
        <ele>254</ele>
        <time>2015-06-21T14:55:31Z</time>
      </trkpt>
      <trkpt lat="47.29409" lon="5.01038">
        <ele>253</ele>
        <time>2015-06-21T14:55:47Z</time>
      </trkpt>
      <trkpt lat="47.29425" lon="5.01057">
        <ele>253</ele>
        <time>2015-06-21T14:55:59Z</time>
      </trkpt>
      <trkpt lat="47.29425" lon="5.01056">
        <ele>253</ele>
        <time>2015-06-21T14:56:13Z</time>
      </trkpt>
      <trkpt lat="47.2946" lon="5.01091">
        <ele>253</ele>
        <time>2015-06-21T14:56:26Z</time>
      </trkpt>
      <trkpt lat="47.29534" lon="5.01148">
        <ele>252</ele>
        <time>2015-06-21T14:56:42Z</time>
      </trkpt>
      <trkpt lat="47.29658" lon="5.01239">
        <ele>252</ele>
        <time>2015-06-21T14:57:07Z</time>
      </trkpt>
      <trkpt lat="47.29699" lon="5.01277">
        <ele>251</ele>
        <time>2015-06-21T14:57:19Z</time>
      </trkpt>
      <trkpt lat="47.29738" lon="5.01308">
        <ele>251</ele>
        <time>2015-06-21T14:57:31Z</time>
      </trkpt>
      <trkpt lat="47.29813" lon="5.01385">
        <ele>250</ele>
        <time>2015-06-21T14:57:48Z</time>
      </trkpt>
      <trkpt lat="47.29969" lon="5.01582">
        <ele>248</ele>
        <time>2015-06-21T14:58:24Z</time>
      </trkpt>
      <trkpt lat="47.30052" lon="5.01683">
        <ele>245</ele>
        <time>2015-06-21T14:58:40Z</time>
      </trkpt>
      <trkpt lat="47.30095" lon="5.01731">
        <ele>244</ele>
        <time>2015-06-21T14:58:51Z</time>
      </trkpt>
      <trkpt lat="47.3017" lon="5.01824">
        <ele>242</ele>
        <time>2015-06-21T14:59:08Z</time>
      </trkpt>
      <trkpt lat="47.30244" lon="5.01903">
        <ele>241</ele>
        <time>2015-06-21T14:59:23Z</time>
      </trkpt>
      <trkpt lat="47.30366" lon="5.02021">
        <ele>241</ele>
        <time>2015-06-21T14:59:50Z</time>
      </trkpt>
      <trkpt lat="47.30557" lon="5.02207">
        <ele>239</ele>
        <time>2015-06-21T15:00:37Z</time>
      </trkpt>
      <trkpt lat="47.30575" lon="5.02223">
        <ele>239</ele>
        <time>2015-06-21T15:01:01Z</time>
      </trkpt>
      <trkpt lat="47.30614" lon="5.02236">
        <ele>239</ele>
        <time>2015-06-21T15:01:10Z</time>
      </trkpt>
      <trkpt lat="47.30624" lon="5.02241">
        <ele>239</ele>
        <time>2015-06-21T15:01:12Z</time>
      </trkpt>
      <trkpt lat="47.30757" lon="5.0231">
        <ele>238</ele>
        <time>2015-06-21T15:01:38Z</time>
      </trkpt>
      <trkpt lat="47.30831" lon="5.02357">
        <ele>238</ele>
        <time>2015-06-21T15:01:52Z</time>
      </trkpt>
      <trkpt lat="47.30925" lon="5.02449">
        <ele>237</ele>
        <time>2015-06-21T15:02:13Z</time>
      </trkpt>
      <trkpt lat="47.30943" lon="5.02466">
        <ele>238</ele>
        <time>2015-06-21T15:02:17Z</time>
      </trkpt>
      <trkpt lat="47.30948" lon="5.0247">
        <ele>238</ele>
        <time>2015-06-21T15:02:18Z</time>
      </trkpt>
      <trkpt lat="47.31033" lon="5.02565">
        <ele>238</ele>
        <time>2015-06-21T15:02:39Z</time>
      </trkpt>
      <trkpt lat="47.31106" lon="5.02645">
        <ele>238</ele>
        <time>2015-06-21T15:02:58Z</time>
      </trkpt>
      <trkpt lat="47.31123" lon="5.02646">
        <ele>238</ele>
        <time>2015-06-21T15:03:02Z</time>
      </trkpt>
      <trkpt lat="47.31132" lon="5.02634">
        <ele>238</ele>
        <time>2015-06-21T15:03:05Z</time>
      </trkpt>
      <trkpt lat="47.31207" lon="5.02507">
        <ele>238</ele>
        <time>2015-06-21T15:03:30Z</time>
      </trkpt>
      <trkpt lat="47.31255" lon="5.02427">
        <ele>238</ele>
        <time>2015-06-21T15:03:46Z</time>
      </trkpt>
      <trkpt lat="47.31314" lon="5.02368">
        <ele>238</ele>
        <time>2015-06-21T15:04:00Z</time>
      </trkpt>
      <trkpt lat="47.31318" lon="5.02365">
        <ele>239</ele>
        <time>2015-06-21T15:04:01Z</time>
      </trkpt>
      <trkpt lat="47.31424" lon="5.02301">
        <ele>239</ele>
        <time>2015-06-21T15:04:25Z</time>
      </trkpt>
      <trkpt lat="47.31472" lon="5.02272">
        <ele>239</ele>
        <time>2015-06-21T15:04:38Z</time>
      </trkpt>
      <trkpt lat="47.31477" lon="5.0228">
        <ele>239</ele>
        <time>2015-06-21T15:04:40Z</time>
      </trkpt>
      <trkpt lat="47.31524" lon="5.0237">
        <ele>239</ele>
        <time>2015-06-21T15:04:57Z</time>
      </trkpt>
      <trkpt lat="47.3157" lon="5.02412">
        <ele>239</ele>
        <time>2015-06-21T15:05:09Z</time>
      </trkpt>
      <trkpt lat="47.3158" lon="5.02424">
        <ele>240</ele>
        <time>2015-06-21T15:05:12Z</time>
      </trkpt>
      <trkpt lat="47.31676" lon="5.02568">
        <ele>240</ele>
        <time>2015-06-21T15:05:39Z</time>
      </trkpt>
      <trkpt lat="47.31732" lon="5.02624">
        <ele>240</ele>
        <time>2015-06-21T15:05:53Z</time>
      </trkpt>
      <trkpt lat="47.31817" lon="5.02749">
        <ele>239</ele>
        <time>2015-06-21T15:06:14Z</time>
      </trkpt>
      <trkpt lat="47.31869" lon="5.02822">
        <ele>239</ele>
        <time>2015-06-21T15:06:31Z</time>
      </trkpt>
      <trkpt lat="47.31881" lon="5.02833">
        <ele>239</ele>
        <time>2015-06-21T15:06:43Z</time>
      </trkpt>
      <trkpt lat="47.31926" lon="5.02863">
        <ele>239</ele>
        <time>2015-06-21T15:06:56Z</time>
      </trkpt>
      <trkpt lat="47.31949" lon="5.0288">
        <ele>240</ele>
        <time>2015-06-21T15:07:06Z</time>
      </trkpt>
      <trkpt lat="47.31962" lon="5.02875">
        <ele>240</ele>
        <time>2015-06-21T15:07:10Z</time>
      </trkpt>
      <trkpt lat="47.31983" lon="5.02893">
        <ele>240</ele>
        <time>2015-06-21T15:07:17Z</time>
      </trkpt>
      <trkpt lat="47.31986" lon="5.02895">
        <ele>240</ele>
        <time>2015-06-21T15:07:18Z</time>
      </trkpt>
      <trkpt lat="47.32033" lon="5.02924">
        <ele>240</ele>
        <time>2015-06-21T15:07:31Z</time>
      </trkpt>
      <trkpt lat="47.32053" lon="5.02962">
        <ele>241</ele>
        <time>2015-06-21T15:07:42Z</time>
      </trkpt>
      <trkpt lat="47.32064" lon="5.02975">
        <ele>241</ele>
        <time>2015-06-21T15:07:45Z</time>
      </trkpt>
      <trkpt lat="47.32069" lon="5.03008">
        <ele>242</ele>
        <time>2015-06-21T15:07:55Z</time>
      </trkpt>
      <trkpt lat="47.32072" lon="5.0301">
        <ele>242</ele>
        <time>2015-06-21T15:08:11Z</time>
      </trkpt>
      <trkpt lat="47.32072" lon="5.03005">
        <ele>242</ele>
        <time>2015-06-21T15:08:22Z</time>
      </trkpt>
      <trkpt lat="47.32094" lon="5.0299">
        <ele>242</ele>
        <time>2015-06-21T15:08:30Z</time>
      </trkpt>
      <trkpt lat="47.32131" lon="5.02969">
        <ele>242</ele>
        <time>2015-06-21T15:08:42Z</time>
      </trkpt>
      <trkpt lat="47.32194" lon="5.02934">
        <ele>242</ele>
        <time>2015-06-21T15:09:06Z</time>
      </trkpt>
      <trkpt lat="47.32202" lon="5.02909">
        <ele>242</ele>
        <time>2015-06-21T15:09:53Z</time>
      </trkpt>
      <trkpt lat="47.32208" lon="5.02894">
        <ele>242</ele>
        <time>2015-06-21T15:10:09Z</time>
      </trkpt>
      <trkpt lat="47.3221" lon="5.02899">
        <ele>242</ele>
        <time>2015-06-21T15:10:15Z</time>
      </trkpt>
      <trkpt lat="47.32207" lon="5.02909">
        <ele>242</ele>
        <time>2015-06-21T15:10:26Z</time>
      </trkpt>
      <trkpt lat="47.32206" lon="5.02921">
        <ele>243</ele>
        <time>2015-06-21T15:10:40Z</time>
      </trkpt>
      <trkpt lat="47.32218" lon="5.02983">
        <ele>243</ele>
        <time>2015-06-21T15:11:10Z</time>
      </trkpt>
      <trkpt lat="47.32221" lon="5.03027">
        <ele>243</ele>
        <time>2015-06-21T15:11:29Z</time>
      </trkpt>
      <trkpt lat="47.32227" lon="5.03031">
        <ele>243</ele>
        <time>2015-06-21T15:11:55Z</time>
      </trkpt>
      <trkpt lat="47.32241" lon="5.03044">
        <ele>244</ele>
        <time>2015-06-21T15:12:05Z</time>
      </trkpt>
      <trkpt lat="47.32269" lon="5.03111">
        <ele>246</ele>
        <time>2015-06-21T15:12:30Z</time>
      </trkpt>
      <trkpt lat="47.3227" lon="5.0312">
        <ele>246</ele>
        <time>2015-06-21T15:12:45Z</time>
      </trkpt>
      <trkpt lat="47.32286" lon="5.0317">
        <ele>247</ele>
        <time>2015-06-21T15:13:06Z</time>
      </trkpt>
      <trkpt lat="47.32319" lon="5.03248">
        <ele>249</ele>
        <time>2015-06-21T15:13:24Z</time>
      </trkpt>
      <trkpt lat="47.3234" lon="5.0327">
        <ele>250</ele>
        <time>2015-06-21T15:13:33Z</time>
      </trkpt>
      <trkpt lat="47.32348" lon="5.03312">
        <ele>251</ele>
        <time>2015-06-21T15:13:41Z</time>
      </trkpt>
      <trkpt lat="47.32348" lon="5.03317">
        <ele>251</ele>
        <time>2015-06-21T15:13:42Z</time>
      </trkpt>
      <trkpt lat="47.3235" lon="5.03331">
        <ele>251</ele>
        <time>2015-06-21T15:13:45Z</time>
      </trkpt>
      <trkpt lat="47.32342" lon="5.03364">
        <ele>251</ele>
        <time>2015-06-21T15:13:55Z</time>
      </trkpt>
      <trkpt lat="47.32341" lon="5.03373">
        <ele>251</ele>
        <time>2015-06-21T15:14:03Z</time>
      </trkpt>
      <trkpt lat="47.32338" lon="5.03407">
        <ele>252</ele>
        <time>2015-06-21T15:14:13Z</time>
      </trkpt>
      <trkpt lat="47.3234" lon="5.03422">
        <ele>252</ele>
        <time>2015-06-21T15:14:17Z</time>
      </trkpt>
      <trkpt lat="47.32352" lon="5.03445">
        <ele>252</ele>
        <time>2015-06-21T15:14:27Z</time>
      </trkpt>
      <trkpt lat="47.32375" lon="5.03441">
        <ele>252</ele>
        <time>2015-06-21T15:14:39Z</time>
      </trkpt>
      <trkpt lat="47.32377" lon="5.03443">
        <ele>253</ele>
        <time>2015-06-21T15:14:40Z</time>
      </trkpt>
      <trkpt lat="47.3238" lon="5.03446">
        <ele>253</ele>
        <time>2015-06-21T15:14:41Z</time>
      </trkpt>
      <trkpt lat="47.32417" lon="5.03504">
        <ele>253</ele>
        <time>2015-06-21T15:14:58Z</time>
      </trkpt>
      <trkpt lat="47.32444" lon="5.03593">
        <ele>252</ele>
        <time>2015-06-21T15:15:17Z</time>
      </trkpt>
      <trkpt lat="47.32451" lon="5.03628">
        <ele>252</ele>
        <time>2015-06-21T15:15:25Z</time>
      </trkpt>
      <trkpt lat="47.32452" lon="5.03633">
        <ele>252</ele>
        <time>2015-06-21T15:15:26Z</time>
      </trkpt>
      <trkpt lat="47.32463" lon="5.03663">
        <ele>252</ele>
        <time>2015-06-21T15:15:36Z</time>
      </trkpt>
      <trkpt lat="47.32485" lon="5.03705">
        <ele>251</ele>
        <time>2015-06-21T15:15:46Z</time>
      </trkpt>
      <trkpt lat="47.3249" lon="5.03755">
        <ele>250</ele>
        <time>2015-06-21T15:15:55Z</time>
      </trkpt>
      <trkpt lat="47.32495" lon="5.03764">
        <ele>250</ele>
        <time>2015-06-21T15:15:57Z</time>
      </trkpt>
      <trkpt lat="47.32534" lon="5.03852">
        <ele>249</ele>
        <time>2015-06-21T15:16:11Z</time>
      </trkpt>
      <trkpt lat="47.32558" lon="5.0394">
        <ele>249</ele>
        <time>2015-06-21T15:16:25Z</time>
      </trkpt>
      <trkpt lat="47.32585" lon="5.04046">
        <ele>249</ele>
        <time>2015-06-21T15:16:43Z</time>
      </trkpt>
      <trkpt lat="47.32593" lon="5.04123">
        <ele>249</ele>
        <time>2015-06-21T15:16:58Z</time>
      </trkpt>
      <trkpt lat="47.32604" lon="5.04199">
        <ele>250</ele>
        <time>2015-06-21T15:17:12Z</time>
      </trkpt>
      <trkpt lat="47.32611" lon="5.04258">
        <ele>249</ele>
        <time>2015-06-21T15:17:26Z</time>
      </trkpt>
      <trkpt lat="47.3263" lon="5.04329">
        <ele>249</ele>
        <time>2015-06-21T15:17:40Z</time>
      </trkpt>
      <trkpt lat="47.32636" lon="5.04342">
        <ele>249</ele>
        <time>2015-06-21T15:17:47Z</time>
      </trkpt>
      <trkpt lat="47.32645" lon="5.04396">
        <ele>250</ele>
        <time>2015-06-21T15:18:00Z</time>
      </trkpt>
      <trkpt lat="47.32645" lon="5.04421">
        <ele>250</ele>
        <time>2015-06-21T15:18:05Z</time>
      </trkpt>
      <trkpt lat="47.32615" lon="5.04512">
        <ele>250</ele>
        <time>2015-06-21T15:18:23Z</time>
      </trkpt>
      <trkpt lat="47.32606" lon="5.0459">
        <ele>249</ele>
        <time>2015-06-21T15:18:42Z</time>
      </trkpt>
      <trkpt lat="47.32604" lon="5.04614">
        <ele>249</ele>
        <time>2015-06-21T15:19:04Z</time>
      </trkpt>
      <trkpt lat="47.32604" lon="5.04616">
        <ele>249</ele>
        <time>2015-06-21T15:19:09Z</time>
      </trkpt>
      <trkpt lat="47.3263" lon="5.04639">
        <ele>250</ele>
        <time>2015-06-21T15:19:21Z</time>
      </trkpt>
      <trkpt lat="47.32665" lon="5.04628">
        <ele>250</ele>
        <time>2015-06-21T15:19:34Z</time>
      </trkpt>
      <trkpt lat="47.32686" lon="5.04579">
        <ele>250</ele>
        <time>2015-06-21T15:19:48Z</time>
      </trkpt>
      <trkpt lat="47.3271" lon="5.04556">
        <ele>250</ele>
        <time>2015-06-21T15:20:00Z</time>
      </trkpt>
      <trkpt lat="47.32741" lon="5.0455">
        <ele>251</ele>
        <time>2015-06-21T15:20:11Z</time>
      </trkpt>
      <trkpt lat="47.32739" lon="5.04562">
        <ele>250</ele>
        <time>2015-06-21T15:20:14Z</time>
      </trkpt>
      <trkpt lat="47.32725" lon="5.04632">
        <ele>250</ele>
        <time>2015-06-21T15:20:27Z</time>
      </trkpt>
      <trkpt lat="47.32736" lon="5.04663">
        <ele>250</ele>
        <time>2015-06-21T15:20:32Z</time>
      </trkpt>
      <trkpt lat="47.32812" lon="5.0472">
        <ele>250</ele>
        <time>2015-06-21T15:20:53Z</time>
      </trkpt>
      <trkpt lat="47.32941" lon="5.04796">
        <ele>250</ele>
        <time>2015-06-21T15:21:25Z</time>
      </trkpt>
      <trkpt lat="47.32984" lon="5.04816">
        <ele>249</ele>
        <time>2015-06-21T15:21:52Z</time>
      </trkpt>
      <trkpt lat="47.33015" lon="5.04831">
        <ele>250</ele>
        <time>2015-06-21T15:22:03Z</time>
      </trkpt>
      <trkpt lat="47.33063" lon="5.04874">
        <ele>250</ele>
        <time>2015-06-21T15:22:18Z</time>
      </trkpt>
      <trkpt lat="47.33116" lon="5.04937">
        <ele>250</ele>
        <time>2015-06-21T15:22:38Z</time>
      </trkpt>
      <trkpt lat="47.33161" lon="5.04998">
        <ele>250</ele>
        <time>2015-06-21T15:22:52Z</time>
      </trkpt>
      <trkpt lat="47.33289" lon="5.05167">
        <ele>250</ele>
        <time>2015-06-21T15:23:27Z</time>
      </trkpt>
      <trkpt lat="47.33337" lon="5.05227">
        <ele>250</ele>
        <time>2015-06-21T15:23:40Z</time>
      </trkpt>
      <trkpt lat="47.33351" lon="5.05247">
        <ele>250</ele>
        <time>2015-06-21T15:23:44Z</time>
      </trkpt>
      <trkpt lat="47.33403" lon="5.05317">
        <ele>250</ele>
        <time>2015-06-21T15:23:58Z</time>
      </trkpt>
      <trkpt lat="47.33428" lon="5.05348">
        <ele>251</ele>
        <time>2015-06-21T15:24:04Z</time>
      </trkpt>
      <trkpt lat="47.33562" lon="5.05514">
        <ele>250</ele>
        <time>2015-06-21T15:24:39Z</time>
      </trkpt>
      <trkpt lat="47.33631" lon="5.0562">
        <ele>251</ele>
        <time>2015-06-21T15:25:03Z</time>
      </trkpt>
      <trkpt lat="47.33634" lon="5.05658">
        <ele>251</ele>
        <time>2015-06-21T15:25:12Z</time>
      </trkpt>
      <trkpt lat="47.3364" lon="5.05675">
        <ele>251</ele>
        <time>2015-06-21T15:25:17Z</time>
      </trkpt>
      <trkpt lat="47.33645" lon="5.05721">
        <ele>252</ele>
        <time>2015-06-21T15:25:29Z</time>
      </trkpt>
      <trkpt lat="47.33636" lon="5.05803">
        <ele>254</ele>
        <time>2015-06-21T15:25:44Z</time>
      </trkpt>
      <trkpt lat="47.33624" lon="5.05913">
        <ele>256</ele>
        <time>2015-06-21T15:26:04Z</time>
      </trkpt>
      <trkpt lat="47.3361" lon="5.05939">
        <ele>256</ele>
        <time>2015-06-21T15:26:12Z</time>
      </trkpt>
      <trkpt lat="47.33612" lon="5.0595">
        <ele>256</ele>
        <time>2015-06-21T15:26:18Z</time>
      </trkpt>
      <trkpt lat="47.336" lon="5.06034">
        <ele>254</ele>
        <time>2015-06-21T15:26:36Z</time>
      </trkpt>
      <trkpt lat="47.33601" lon="5.06073">
        <ele>255</ele>
        <time>2015-06-21T15:27:02Z</time>
      </trkpt>
      <trkpt lat="47.33601" lon="5.06073">
        <ele>255</ele>
        <time>2015-06-21T15:27:06Z</time>
      </trkpt>
      <trkpt lat="47.33638" lon="5.06081">
        <ele>254</ele>
        <time>2015-06-21T15:27:21Z</time>
      </trkpt>
    </trkseg>
  </trk>
</gpx>